Radiosonde details



Informationen :

Serial : V3010045
Type : Vaisala RS41-SGP
Date of production : 24.07.2023
Frequency : 403.000MHz
Launchsite : Galeao
Nearest town : Rio das Ostras, BR (11.7km)

Altitude (Max) : 26110m at 2026-09-03 00:46:31
Speed (Max) : 194km/h at altitude 9082m

Average speed : 105km/h
Average ascent rate : 6m/s
Average descent rate : -10m/s
Ascent rate (Max) : 11.6m/s
Descent rate (Max): -21.8m/s

First frame :
PU1XMG-16 at 2026-09-02 23:34:21 at altitude 265m (OG: 223m)
Last frame :
PU1XMG-16 at 2026-09-03 01:09:09 at altitude 11781m (OG: 11739m)

Flighttime : 1h34m48s
Ascent time : 1h12m10s
Descent time : 22m38s
Uptime : -
Killtimer : 8h11m

Distance (Straight line distance): 126km

Distance (Route):


Frames : 559


Measurement :

Temperature : -45.2°C
Humidity : 3.5%
Pressure : 219.0hPa


Vertical profile (SkewT) :


Elevation profile :



Receiving stations :


Receiver Frames First received Last received
PU1XMG-16 559 2026-09-02 23:34:21 2026-09-03 01:09:09

Share per receiver :



All frames :


Receiver Date Latitude Longitude Direction Speed Altitude Climb Temperature Humidity Pressure Voltage Killtimer Uptime BKT XDATA
PU1XMG-162026-09-03 01:09:09-22.57283-42.0477175°164km/h11781m-10.9m/s-45.2°C3.5%219.0hPa0V00:00:0000:00:0000:00:00
PU1XMG-162026-09-03 01:09:01-22.57355-42.0507777°166km/h11852m-10.7m/s-45.6°C3.6%216.7hPa0V00:00:0000:00:0000:00:00
PU1XMG-162026-09-03 01:08:55-22.57412-42.0534178°166km/h11914m-11.7m/s-46.2°C3.7%214.8hPa0V00:00:0000:00:0000:00:00
PU1XMG-162026-09-03 01:08:51-22.57457-42.0556079°164km/h11970m-10.8m/s-46.6°C3.9%213.0hPa0V00:00:0000:00:0000:00:00
PU1XMG-162026-09-03 01:08:41-22.57536-42.0600181°162km/h12078m-10.0m/s-47.6°C4.2%209.5hPa0V00:00:0000:00:0000:00:00
PU1XMG-162026-09-03 01:08:34-22.57578-42.0626481°166km/h12150m-11.7m/s-48.2°C4.3%207.3hPa0V00:00:0000:00:0000:00:00
PU1XMG-162026-09-03 01:08:29-22.57620-42.0652982°166km/h12215m-12.6m/s-48.8°C4.5%205.3hPa0V08:11:0000:00:0000:00:00
PU1XMG-162026-09-03 01:08:21-22.57668-42.0683982°164km/h12292m-10.0m/s-49.5°C4.9%202.9hPa0V08:11:0000:00:0000:00:00
PU1XMG-162026-09-03 01:08:16-22.57701-42.0705982°164km/h12343m-10.7m/s-50.0°C5.0%201.3hPa0V08:11:0000:00:0000:00:00
PU1XMG-162026-09-03 01:08:12-22.57732-42.0728082°164km/h12396m-9.9m/s-50.4°C5.3%199.7hPa0V08:11:0000:00:0000:00:00
PU1XMG-162026-09-03 01:08:05-22.57769-42.0754782°164km/h12450m-8.7m/s-50.9°C5.6%198.0hPa0V08:11:0000:00:0000:00:00
PU1XMG-162026-09-03 01:07:58-22.57814-42.0785682°162km/h12518m-9.4m/s-51.5°C5.7%196.0hPa0V08:11:0000:00:0000:00:00
PU1XMG-162026-09-03 01:07:51-22.57858-42.0816582°164km/h12575m-7.6m/s-52.1°C6.1%194.2hPa0V08:11:0000:00:0000:00:00
PU1XMG-162026-09-03 01:07:46-22.57898-42.0843082°164km/h12620m-7.4m/s-52.5°C6.3%192.8hPa0V08:11:0000:00:0000:00:00
PU1XMG-162026-09-03 01:07:38-22.57950-42.0878482°164km/h12681m-7.4m/s-53.1°C6.7%191.0hPa0V08:12:0000:00:0000:00:00
PU1XMG-162026-09-03 01:07:33-22.57981-42.0900582°162km/h12718m-7.5m/s-53.4°C6.8%189.9hPa0V08:12:0000:00:0000:00:00
PU1XMG-162026-09-03 01:07:25-22.58025-42.0931583°164km/h12769m-7.5m/s-53.8°C7.1%188.4hPa0V08:12:0000:00:0000:00:00
PU1XMG-162026-09-03 01:07:20-22.58062-42.0958182°164km/h12814m-7.0m/s-54.2°C7.3%187.1hPa0V08:12:0000:00:0000:00:00
PU1XMG-162026-09-03 01:07:14-22.58100-42.0984882°164km/h12857m-7.1m/s-54.5°C7.7%185.9hPa0V08:12:0000:00:0000:00:00
PU1XMG-162026-09-03 01:07:07-22.58138-42.1011682°164km/h12901m-7.7m/s-54.9°C8.0%184.6hPa0V08:12:0000:00:0000:00:00
PU1XMG-162026-09-03 01:07:02-22.58176-42.1038482°164km/h12947m-7.8m/s-55.3°C8.4%183.3hPa0V08:12:0000:00:0000:00:00
PU1XMG-162026-09-03 01:06:56-22.58208-42.1060882°166km/h12985m-7.1m/s-55.7°C8.7%182.2hPa0V08:12:0000:00:0000:00:00
PU1XMG-162026-09-03 01:06:51-22.58247-42.1087682°166km/h13029m-7.6m/s-56.1°C9.0%180.9hPa0V08:12:0000:00:0000:00:00
PU1XMG-162026-09-03 01:06:44-22.58286-42.1114582°166km/h13075m-7.7m/s-56.5°C9.3%179.6hPa0V00:00:0000:00:0000:00:00
PU1XMG-162026-09-03 01:06:39-22.58318-42.1137082°166km/h13114m-8.3m/s-56.9°C9.7%178.5hPa0V00:00:0000:00:0000:00:00
PU1XMG-162026-09-03 01:06:34-22.58356-42.1163883°168km/h13159m-7.5m/s-57.3°C10.4%177.3hPa0V00:00:0000:00:0000:00:00
PU1XMG-162026-09-03 01:06:28-22.58395-42.1191082°168km/h13205m-8.1m/s-57.7°C10.7%175.9hPa0V00:00:0000:00:0000:00:00
PU1XMG-162026-09-03 01:06:20-22.58447-42.1227382°168km/h13282m-9.8m/s-58.3°C11.3%173.9hPa0V00:00:0000:00:0000:00:00
PU1XMG-162026-09-03 01:06:12-22.58488-42.1259183°168km/h13350m-9.6m/s-58.9°C11.8%172.0hPa0V00:00:0000:00:0000:00:00
PU1XMG-162026-09-03 01:06:06-22.58526-42.1290884°166km/h13417m-9.6m/s-59.5°C12.4%170.2hPa0V00:00:0000:00:0000:00:00
PU1XMG-162026-09-03 01:05:58-22.58562-42.1322684°168km/h13483m-9.7m/s-60.0°C12.9%168.4hPa0V00:00:0000:00:0000:00:00
PU1XMG-162026-09-03 01:05:52-22.58597-42.1354485°168km/h13550m-9.5m/s-60.5°C13.2%166.6hPa0V00:00:0000:00:0000:00:00
PU1XMG-162026-09-03 01:05:08-22.58698-42.1554989°168km/h13944m-8.4m/s-63.7°C14.8%156.3hPa0V00:00:0000:00:0000:00:00
PU1XMG-162026-09-03 01:04:53-22.58714-42.1619590°168km/h14067m-9.1m/s-64.8°C14.3%153.2hPa0V00:00:0000:00:0000:00:00
PU1XMG-162026-09-03 01:04:47-22.58719-42.1651989°172km/h14130m-9.0m/s-65.4°C14.0%151.6hPa0V00:00:0000:00:0000:00:00
PU1XMG-162026-09-03 01:04:38-22.58732-42.1694590°172km/h14210m-9.0m/s-66.1°C13.6%149.7hPa0V00:00:0000:00:0000:00:00
PU1XMG-162026-09-03 01:04:23-22.58763-42.1764786°173km/h14344m-9.1m/s-66.4°C10.9%146.4hPa0V00:00:0000:00:0000:00:00
PU1XMG-162026-09-03 01:04:15-22.58787-42.1797987°173km/h14408m-9.1m/s-66.7°C10.4%144.9hPa0V00:00:0000:00:0000:00:00
PU1XMG-162026-09-03 01:03:59-22.58830-42.1876785°168km/h14563m-8.9m/s-67.3°C8.7%141.2hPa0V00:00:0000:00:0000:00:00
PU1XMG-162026-09-03 01:03:52-22.58870-42.1908182°164km/h14628m-9.5m/s-66.9°C8.2%139.7hPa0V00:00:0000:00:0000:00:00
PU1XMG-162026-09-03 01:03:43-22.58940-42.1948079°164km/h14712m-9.4m/s-67.1°C7.9%137.7hPa0V00:00:0000:00:0000:00:00
PU1XMG-162026-09-03 01:03:30-22.59042-42.1998478°150km/h14825m-9.5m/s-67.5°C7.8%135.2hPa0V00:00:0000:00:0000:00:00
PU1XMG-162026-09-03 01:03:25-22.59093-42.2022078°144km/h14882m-9.1m/s-67.5°C7.7%134.0hPa0V00:00:0000:00:0000:00:00
PU1XMG-162026-09-03 01:03:19-22.59133-42.2041079°142km/h14929m-9.3m/s-67.5°C7.6%133.0hPa0V00:00:0000:00:0000:00:00
PU1XMG-162026-09-03 01:03:12-22.59187-42.2070981°137km/h15005m-9.5m/s-67.8°C7.7%131.2hPa0V00:00:0000:00:0000:00:00
PU1XMG-162026-09-03 01:02:47-22.59275-42.2161287°130km/h15247m-9.7m/s-68.8°C7.4%126.1hPa0V00:00:0000:00:0000:00:00
PU1XMG-162026-09-03 01:02:22-22.59254-42.2246797°124km/h15493m-10.1m/s-68.8°C6.6%121.0hPa0V00:00:0000:00:0000:00:00
PU1XMG-162026-09-03 01:02:08-22.59200-42.22902100°124km/h15622m-10.1m/s-69.9°C6.7%118.4hPa0V00:00:0000:00:0000:00:00
PU1XMG-162026-09-03 01:02:01-22.59160-42.23140103°128km/h15691m-9.8m/s-70.5°C6.7%117.0hPa0V00:00:0000:00:0000:00:00
PU1XMG-162026-09-03 01:01:56-22.59119-42.23343103°128km/h15751m-10.0m/s-70.8°C6.7%115.9hPa0V00:00:0000:00:0000:00:00
PU1XMG-162026-09-03 01:01:49-22.59073-42.23584103°130km/h15819m-9.9m/s-71.3°C6.8%114.5hPa0V00:00:0000:00:0000:00:00
PU1XMG-162026-09-03 01:01:41-22.59018-42.23862103°133km/h15898m-10.0m/s-72.0°C7.1%113.0hPa0V08:18:0000:00:0000:00:00
PU1XMG-162026-09-03 01:01:34-22.58980-42.24081100°137km/h15958m-10.0m/s-72.4°C7.6%111.9hPa0V08:18:0000:00:0000:00:00
PU1XMG-162026-09-03 01:01:27-22.58951-42.2438094°137km/h16037m-10.1m/s-72.4°C7.8%110.4hPa0V08:18:0000:00:0000:00:00
PU1XMG-162026-09-03 01:01:11-22.58975-42.2490886°115km/h16187m-10.2m/s-70.9°C7.2%107.5hPa0V08:18:0000:00:0000:00:00
PU1XMG-162026-09-03 01:01:05-22.59001-42.2511482°106km/h16258m-10.4m/s-70.2°C6.7%106.3hPa0V08:18:0000:00:0000:00:00
PU1XMG-162026-09-03 01:00:56-22.59038-42.2534379°108km/h16339m-10.2m/s-68.6°C5.6%104.9hPa0V08:18:0000:00:0000:00:00
PU1XMG-162026-09-03 01:00:49-22.59088-42.2554374°108km/h16411m-10.0m/s-69.0°C5.6%103.7hPa0V00:00:0000:00:0000:00:00
PU1XMG-162026-09-03 01:00:41-22.59169-42.2579968°111km/h16502m-10.2m/s-69.0°C5.3%102.1hPa0V00:00:0000:00:0000:00:00
PU1XMG-162026-09-03 01:00:34-22.59237-42.2596466°108km/h16564m-10.1m/s-69.3°C5.4%101.0hPa0V00:00:0000:00:0000:00:00
PU1XMG-162026-09-03 01:00:18-22.59427-42.2636561°86km/h16740m-10.3m/s-69.2°C4.7%98.1hPa0V00:00:0000:00:0000:00:00
PU1XMG-162026-09-03 00:53:20-22.59234-42.30383300°13km/h22003m-16.1m/s-59.4°C1.4%41.5hPa0V00:00:0000:00:0000:00:00
PU1XMG-162026-09-03 00:53:15-22.59243-42.30366306°15km/h22078m-13.4m/s-59.7°C1.5%41.0hPa0V00:00:0000:00:0000:00:00
PU1XMG-162026-09-03 00:53:06-22.59280-42.30339329°20km/h22201m-12.5m/s-60.2°C1.6%40.2hPa0V00:00:0000:00:0000:00:00
PU1XMG-162026-09-03 00:52:58-22.59301-42.30315287°9km/h22304m-12.0m/s-60.1°C1.6%39.5hPa0V00:00:0000:00:0000:00:00
PU1XMG-162026-09-03 00:52:53-22.59299-42.30301246°11km/h22362m-11.5m/s-60.1°C1.5%39.1hPa0V00:00:0000:00:0000:00:00
PU1XMG-162026-09-03 00:52:47-22.59289-42.30289212°13km/h22420m-11.8m/s-60.3°C1.6%38.8hPa0V00:00:0000:00:0000:00:00
PU1XMG-162026-09-03 00:52:42-22.59271-42.30280206°13km/h22491m-12.5m/s-60.7°C1.6%38.4hPa0V00:00:0000:00:0000:00:00
PU1XMG-162026-09-03 00:52:28-22.59205-42.30278157°18km/h22666m-12.7m/s-61.0°C1.7%37.3hPa0V00:00:0000:00:0000:00:00
PU1XMG-162026-09-03 00:49:42-22.59358-42.3124158°31km/h25475m-21.8m/s-50.8°C1.0%23.9hPa0V00:00:0000:00:0000:00:00
PU1XMG-162026-09-03 00:49:36-22.59370-42.3127987°22km/h25589m-20.7m/s-50.5°C0.9%23.5hPa0V00:00:0000:00:0000:00:00
PU1XMG-162026-09-03 00:49:13-22.59427-42.3146862°37km/h25978m-19.7m/s-50.7°C0.9%22.1hPa0V00:00:0000:00:0000:00:00
PU1XMG-162026-09-03 00:46:31-22.60209-42.3267949°44km/h26110m4.8m/s-50.9°C0.9%21.6hPa0V00:00:0000:00:0000:00:00
PU1XMG-162026-09-03 00:46:17-22.60283-42.3279861°40km/h26027m5.6m/s-50.9°C1.0%21.9hPa0V00:00:0000:00:0000:00:00
PU1XMG-162026-09-03 00:45:29-22.60411-42.3315571°27km/h25729m5.2m/s-50.3°C0.9%22.9hPa0V00:00:0000:00:0000:00:00
PU1XMG-162026-09-03 00:38:52-22.61254-42.35898120°35km/h23153m4.8m/s-58.7°C1.4%34.4hPa0V00:00:0000:00:0000:00:00
PU1XMG-162026-09-03 00:38:37-22.61189-42.35990133°24km/h23058m5.7m/s-59.7°C1.4%35.0hPa0V00:00:0000:00:0000:00:00
PU1XMG-162026-09-03 00:38:25-22.61146-42.36029104°5km/h22980m3.6m/s-60.1°C1.5%35.4hPa0V00:00:0000:00:0000:00:00
PU1XMG-162026-09-03 00:37:29-22.61044-42.36003160°11km/h22629m5.4m/s-59.7°C1.4%37.5hPa0V00:00:0000:00:0000:00:00
PU1XMG-162026-09-03 00:36:23-22.60939-42.35885308°22km/h22214m7.4m/s-59.7°C1.4%40.1hPa0V00:00:0000:00:0000:00:00
PU1XMG-162026-09-03 00:36:19-22.60961-42.35863337°22km/h22183m7.9m/s-59.6°C1.4%40.3hPa0V00:00:0000:00:0000:00:00
PU1XMG-162026-09-03 00:36:13-22.60991-42.35861350°20km/h22145m5.9m/s-59.5°C1.5%40.5hPa0V00:00:0000:00:0000:00:00
PU1XMG-162026-09-03 00:36:03-22.61031-42.35829353°16km/h22089m6.6m/s-59.3°C1.4%40.9hPa0V00:00:0000:00:0000:00:00
PU1XMG-162026-09-03 00:35:57-22.61056-42.35825322°16km/h22052m7.1m/s-59.3°C1.4%41.1hPa0V00:00:0000:00:0000:00:00
PU1XMG-162026-09-03 00:35:47-22.61087-42.35792347°11km/h21984m7.1m/s-59.2°C1.4%41.6hPa0V00:00:0000:00:0000:00:00
PU1XMG-162026-09-03 00:35:40-22.61096-42.35779296°15km/h21948m7.3m/s-59.0°C1.4%41.8hPa0V00:00:0000:00:0000:00:00
PU1XMG-162026-09-03 00:35:27-22.61120-42.35748320°15km/h21868m5.4m/s-58.6°C1.4%42.4hPa0V00:00:0000:00:0000:00:00
PU1XMG-162026-09-03 00:35:19-22.61136-42.35725348°5km/h21818m7.1m/s-58.5°C1.4%42.7hPa0V00:00:0000:00:0000:00:00
PU1XMG-162026-09-03 00:35:14-22.61137-42.35719258°15km/h21759m5.4m/s-58.5°C1.4%42.9hPa0V00:00:0000:00:0000:00:00
PU1XMG-162026-09-03 00:35:06-22.61136-42.35701241°7km/h21727m4.6m/s-58.5°C1.4%43.3hPa0V00:00:0000:00:0000:00:00
PU1XMG-162026-09-03 00:35:00-22.61132-42.35700168°5km/h21695m4.5m/s-58.5°C1.4%43.5hPa0V00:00:0000:00:0000:00:00
PU1XMG-162026-09-03 00:34:55-22.61128-42.35691259°15km/h21665m6.1m/s-58.5°C1.4%43.8hPa0V00:00:0000:00:0000:00:00
PU1XMG-162026-09-03 00:34:49-22.61122-42.35658225°13km/h21608m8.3m/s-58.4°C1.4%44.0hPa0V00:00:0000:00:0000:00:00
PU1XMG-162026-09-03 00:34:43-22.61118-42.35652283°9km/h21590m5.5m/s-58.2°C1.4%44.3hPa0V00:00:0000:00:0000:00:00
PU1XMG-162026-09-03 00:34:34-22.61123-42.35611255°18km/h21536m6.1m/s-57.9°C1.3%44.7hPa0V00:00:0000:00:0000:00:00
PU1XMG-162026-09-03 00:34:28-22.61114-42.35592242°9km/h21499m8.1m/s-58.0°C1.4%45.0hPa0V00:00:0000:00:0000:00:00
PU1XMG-162026-09-03 00:34:22-22.61114-42.35569282°22km/h21463m6.4m/s-57.8°C1.3%45.2hPa0V00:00:0000:00:0000:00:00
PU1XMG-162026-09-03 00:34:15-22.61119-42.35546318°7km/h21421m7.3m/s-58.0°C1.3%45.5hPa0V00:00:0000:00:0000:00:00
PU1XMG-162026-09-03 00:34:08-22.61134-42.35519297°16km/h21373m5.4m/s-58.7°C1.4%45.9hPa0V00:00:0000:00:0000:00:00
PU1XMG-162026-09-03 00:31:13-22.61790-42.3636585°35km/h20306m5.7m/s-63.7°C2.0%54.5hPa0V00:00:0000:00:0000:00:00
PU1XMG-162026-09-03 00:31:08-22.61793-42.3643684°51km/h20271m6.6m/s-63.7°C1.9%54.9hPa0V00:00:0000:00:0000:00:00
PU1XMG-162026-09-03 00:30:47-22.61778-42.3668396°42km/h20151m5.7m/s-63.8°C2.0%55.9hPa0V00:00:0000:00:0000:00:00
PU1XMG-162026-09-03 00:30:40-22.61760-42.36759108°35km/h20105m7.5m/s-63.5°C2.0%56.4hPa0V00:00:0000:00:0000:00:00
PU1XMG-162026-09-03 00:30:32-22.61751-42.3683299°40km/h20064m6.4m/s-63.2°C2.0%56.8hPa0V00:00:0000:00:0000:00:00
PU1XMG-162026-09-03 00:30:26-22.61736-42.36893108°37km/h20029m7.4m/s-63.0°C1.9%57.1hPa0V00:00:0000:00:0000:00:00
PU1XMG-162026-09-03 00:30:18-22.61727-42.3696988°35km/h19982m4.7m/s-63.0°C1.9%57.5hPa0V00:00:0000:00:0000:00:00
PU1XMG-162026-09-03 00:30:06-22.61711-42.3707794°37km/h19915m7.4m/s-63.3°C2.0%58.1hPa0V00:00:0000:00:0000:00:00
PU1XMG-162026-09-03 00:29:52-22.61709-42.3721084°44km/h19835m4.9m/s-62.8°C2.1%58.9hPa0V00:00:0000:00:0000:00:00
PU1XMG-162026-09-03 00:29:43-22.61718-42.3730075°35km/h19781m7.8m/s-62.5°C2.1%59.4hPa0V00:00:0000:00:0000:00:00
PU1XMG-162026-09-03 00:29:01-22.61875-42.3766463°44km/h19537m5.5m/s-63.2°C2.1%61.8hPa0V00:00:0000:00:0000:00:00
PU1XMG-162026-09-03 00:23:49-22.60468-42.41247127°60km/h17698m5.0m/s-63.0°C3.5%83.6hPa0V00:00:0000:00:0000:00:00
PU1XMG-162026-09-03 00:22:26-22.60361-42.4250178°75km/h17184m3.2m/s-68.2°C6.5%90.9hPa0V00:00:0000:00:0000:00:00
PU1XMG-162026-09-03 00:22:16-22.60401-42.4270182°69km/h17128m6.4m/s-68.6°C6.8%91.8hPa0V00:00:0000:00:0000:00:00
PU1XMG-162026-09-03 00:22:09-22.60423-42.4284079°60km/h17083m4.9m/s-68.9°C6.9%92.5hPa0V00:00:0000:00:0000:00:00
PU1XMG-162026-09-03 00:22:02-22.60447-42.4294174°68km/h17051m6.0m/s-69.0°C7.1%93.0hPa0V00:00:0000:00:0000:00:00
PU1XMG-162026-09-03 00:21:51-22.60504-42.4315173°75km/h16990m3.0m/s-69.0°C7.0%93.9hPa0V00:00:0000:00:0000:00:00
PU1XMG-162026-09-03 00:21:45-22.60551-42.4329269°86km/h16952m6.9m/s-69.4°C7.3%94.5hPa0V00:00:0000:00:0000:00:00
PU1XMG-162026-09-03 00:21:38-22.60609-42.4344768°89km/h16913m5.6m/s-69.5°C7.7%95.2hPa0V00:00:0000:00:0000:00:00
PU1XMG-162026-09-03 00:21:23-22.60734-42.4375768°84km/h16839m4.3m/s-69.5°C7.8%96.4hPa0V00:00:0000:00:0000:00:00
PU1XMG-162026-09-03 00:21:19-22.60778-42.4386066°84km/h16813m3.2m/s-69.4°C7.9%96.8hPa0V00:00:0000:00:0000:00:00
PU1XMG-162026-09-03 00:21:13-22.60840-42.4399062°95km/h16780m4.1m/s-69.4°C7.9%97.3hPa0V00:00:0000:00:0000:00:00
PU1XMG-162026-09-03 00:21:06-22.60918-42.4414063°89km/h16743m4.5m/s-69.3°C7.8%97.9hPa0V00:00:0000:00:0000:00:00
PU1XMG-162026-09-03 00:20:58-22.60997-42.4429762°93km/h16703m5.2m/s-69.4°C7.8%98.6hPa0V00:00:0000:00:0000:00:00
PU1XMG-162026-09-03 00:20:52-22.61069-42.4443262°99km/h16670m5.5m/s-69.4°C7.9%99.1hPa0V00:00:0000:00:0000:00:00
PU1XMG-162026-09-03 00:20:47-22.61127-42.4455165°97km/h16642m6.5m/s-69.4°C8.1%99.6hPa0V00:00:0000:00:0000:00:00
PU1XMG-162026-09-03 00:20:41-22.61195-42.4469962°108km/h16609m4.0m/s-69.6°C8.0%100.1hPa0V00:00:0000:00:0000:00:00
PU1XMG-162026-09-03 00:20:36-22.61260-42.4483465°113km/h16582m5.8m/s-69.7°C8.0%100.6hPa0V00:00:0000:00:0000:00:00
PU1XMG-162026-09-03 00:20:29-22.61333-42.4502771°108km/h16544m3.4m/s-69.6°C8.5%101.3hPa0V00:00:0000:00:0000:00:00
PU1XMG-162026-09-03 00:20:23-22.61387-42.4519873°111km/h16518m4.0m/s-69.6°C8.4%101.9hPa0V00:00:0000:00:0000:00:00
PU1XMG-162026-09-03 00:20:17-22.61437-42.4537273°108km/h16494m7.3m/s-69.7°C8.4%102.4hPa0V00:00:0000:00:0000:00:00
PU1XMG-162026-09-03 00:20:09-22.61495-42.4559481°115km/h16429m5.1m/s-69.5°C8.2%103.2hPa0V00:00:0000:00:0000:00:00
PU1XMG-162026-09-03 00:20:04-22.61525-42.4574677°110km/h16402m3.8m/s-69.3°C8.1%103.7hPa0V00:00:0000:00:0000:00:00
PU1XMG-162026-09-03 00:19:58-22.61558-42.4591481°106km/h16365m6.4m/s-69.2°C7.8%104.3hPa0V00:00:0000:00:0000:00:00
PU1XMG-162026-09-03 00:19:48-22.61608-42.4619978°97km/h16313m5.5m/s-70.2°C8.0%105.2hPa0V00:00:0000:00:0000:00:00
PU1XMG-162026-09-03 00:19:41-22.61633-42.4638283°104km/h16279m6.1m/s-70.6°C8.1%105.8hPa0V00:00:0000:00:0000:00:00
PU1XMG-162026-09-03 00:19:37-22.61651-42.4652685°106km/h16251m5.6m/s-70.8°C8.0%106.3hPa0V00:00:0000:00:0000:00:00
PU1XMG-162026-09-03 00:19:24-22.61684-42.4689681°117km/h16185m6.7m/s-71.3°C7.9%107.5hPa0V00:00:0000:00:0000:00:00
PU1XMG-162026-09-03 00:19:16-22.61705-42.4716292°131km/h16136m6.9m/s-71.8°C8.1%108.5hPa0V00:00:0000:00:0000:00:00
PU1XMG-162026-09-03 00:19:10-22.61312-42.5354184°137km/h15019m9.3m/s-72.1°C8.0%109.3hPa0V00:00:0000:00:0000:00:00
PU1XMG-162026-09-03 00:16:09-22.61312-42.5354184°137km/h15019m9.3m/s-67.9°C10.1%130.8hPa0V00:00:0000:00:0000:00:00
PU1XMG-162026-09-03 00:15:57-22.61392-42.5397776°139km/h14935m5.5m/s-67.8°C10.7%132.6hPa0V00:00:0000:00:0000:00:00
PU1XMG-162026-09-03 00:15:51-22.61445-42.5420679°146km/h14902m4.8m/s-67.6°C11.1%133.4hPa0V00:00:0000:00:0000:00:00
PU1XMG-162026-09-03 00:15:44-22.61503-42.5450779°141km/h14861m4.9m/s-67.5°C11.8%134.4hPa0V00:00:0000:00:0000:00:00
PU1XMG-162026-09-03 00:15:39-22.61537-42.5470681°157km/h14832m4.6m/s-67.3°C12.3%135.0hPa0V00:00:0000:00:0000:00:00
PU1XMG-162026-09-03 00:15:33-22.61574-42.5491077°141km/h14803m6.8m/s-67.2°C12.1%135.6hPa0V00:00:0000:00:0000:00:00
PU1XMG-162026-09-03 00:15:26-22.61636-42.5517177°153km/h14751m5.1m/s-67.2°C13.0%136.7hPa0V00:00:0000:00:0000:00:00
PU1XMG-162026-09-03 00:15:21-22.61690-42.5542679°161km/h14709m4.1m/s-66.9°C13.4%137.7hPa0V00:00:0000:00:0000:00:00
PU1XMG-162026-09-03 00:15:09-22.61774-42.5588779°166km/h14636m7.3m/s-67.1°C15.0%139.4hPa0V00:00:0000:00:0000:00:00
PU1XMG-162026-09-03 00:14:56-22.61849-42.5645386°166km/h14544m7.0m/s-67.4°C16.1%141.5hPa0V00:00:0000:00:0000:00:00
PU1XMG-162026-09-03 00:14:51-22.61858-42.5668490°170km/h14513m4.1m/s-67.2°C16.7%142.2hPa0V00:00:0000:00:0000:00:00
PU1XMG-162026-09-03 00:14:44-22.61868-42.5699588°161km/h14476m5.5m/s-67.0°C17.1%143.1hPa0V00:00:0000:00:0000:00:00
PU1XMG-162026-09-03 00:14:36-22.61887-42.5736290°173km/h14432m6.0m/s-66.7°C17.1%144.2hPa0V00:00:0000:00:0000:00:00
PU1XMG-162026-09-03 00:14:30-22.61897-42.5763886°161km/h14399m5.4m/s-66.6°C17.8%145.0hPa0V00:00:0000:00:0000:00:00
PU1XMG-162026-09-03 00:14:18-22.61948-42.5819190°166km/h14316m9.3m/s-66.4°C17.0%147.0hPa0V00:00:0000:00:0000:00:00
PU1XMG-162026-09-03 00:14:12-22.61955-42.5846288°168km/h14271m5.8m/s-66.4°C17.3%148.0hPa0V00:00:0000:00:0000:00:00
PU1XMG-162026-09-03 00:13:58-22.61969-42.5909789°168km/h14177m4.5m/s-65.7°C16.6%150.3hPa0V00:00:0000:00:0000:00:00
PU1XMG-162026-09-03 00:13:52-22.61979-42.5937287°164km/h14142m6.7m/s-65.3°C15.6%151.2hPa0V00:00:0000:00:0000:00:00
PU1XMG-162026-09-03 00:13:39-22.61997-42.5996087°166km/h14058m5.8m/s-64.6°C15.0%153.3hPa0V00:00:0000:00:0000:00:00
PU1XMG-162026-09-03 00:13:32-22.62007-42.6028591°168km/h14013m7.3m/s-64.2°C14.2%154.2hPa0V00:00:0000:00:0000:00:00
PU1XMG-162026-09-03 00:13:25-22.62016-42.6060587°168km/h13978m5.1m/s-63.9°C13.7%155.2hPa0V00:00:0000:00:0000:00:00
PU1XMG-162026-09-03 00:13:17-22.62033-42.6097389°170km/h13940m3.4m/s-63.5°C13.8%156.3hPa0V00:00:0000:00:0000:00:00
PU1XMG-162026-09-03 00:13:11-22.62045-42.6125087°168km/h13910m5.8m/s-63.3°C13.4%157.1hPa0V00:00:0000:00:0000:00:00
PU1XMG-162026-09-03 00:13:05-22.62064-42.6152587°170km/h13877m6.9m/s-63.0°C12.7%158.0hPa0V00:00:0000:00:0000:00:00
PU1XMG-162026-09-03 00:12:59-22.62074-42.6180390°168km/h13845m6.3m/s-62.7°C12.7%158.8hPa0V00:00:0000:00:0000:00:00
PU1XMG-162026-09-03 00:12:54-22.62089-42.6202885°166km/h13821m4.9m/s-62.5°C12.4%159.4hPa0V00:00:0000:00:0000:00:00
PU1XMG-162026-09-03 00:12:49-22.62106-42.6225888°172km/h13797m3.1m/s-62.3°C12.2%160.1hPa0V00:00:0000:00:0000:00:00
PU1XMG-162026-09-03 00:12:43-22.62121-42.6253087°159km/h13764m4.8m/s-62.0°C11.9%160.9hPa0V00:00:0000:00:0000:00:00
PU1XMG-162026-09-03 00:12:38-22.62138-42.6275085°162km/h13737m4.8m/s-61.7°C11.6%161.6hPa0V00:00:0000:00:0000:00:00
PU1XMG-162026-09-03 00:12:33-22.62159-42.6297486°168km/h13708m6.5m/s-61.5°C11.4%162.4hPa0V00:00:0000:00:0000:00:00
PU1XMG-162026-09-03 00:12:28-22.62172-42.6320188°166km/h13681m3.9m/s-61.3°C11.6%163.0hPa0V00:00:0000:00:0000:00:00
PU1XMG-162026-09-03 00:12:23-22.62188-42.6342484°166km/h13654m5.1m/s-61.0°C11.2%163.8hPa0V00:00:0000:00:0000:00:00
PU1XMG-162026-09-03 00:12:17-22.62215-42.6369685°168km/h13616m7.2m/s-60.7°C10.5%164.7hPa0V00:00:0000:00:0000:00:00
PU1XMG-162026-09-03 00:12:12-22.62235-42.6392386°164km/h13587m4.2m/s-60.4°C10.5%165.5hPa0V00:00:0000:00:0000:00:00
PU1XMG-162026-09-03 00:12:06-22.62261-42.6418985°162km/h13555m4.4m/s-60.2°C10.3%166.3hPa0V00:00:0000:00:0000:00:00
PU1XMG-162026-09-03 00:12:00-22.62286-42.6445586°162km/h13526m5.6m/s-60.0°C10.2%167.2hPa0V00:00:0000:00:0000:00:00
PU1XMG-162026-09-03 00:11:53-22.62319-42.6477083°168km/h13492m4.0m/s-59.7°C9.9%168.1hPa0V00:00:0000:00:0000:00:00
PU1XMG-162026-09-03 00:11:48-22.62345-42.6499285°164km/h13466m4.4m/s-59.5°C9.8%168.8hPa0V00:00:0000:00:0000:00:00
PU1XMG-162026-09-03 00:11:42-22.62366-42.6526185°166km/h13436m4.4m/s-59.3°C9.8%169.6hPa0V00:00:0000:00:0000:00:00
PU1XMG-162026-09-03 00:11:36-22.62404-42.6552782°161km/h13403m4.5m/s-59.2°C9.8%170.4hPa0V00:00:0000:00:0000:00:00
PU1XMG-162026-09-03 00:11:29-22.62458-42.6597582°166km/h13342m6.0m/s-58.9°C9.5%171.6hPa0V00:00:0000:00:0000:00:00
PU1XMG-162026-09-03 00:11:23-22.62478-42.6610881°162km/h13322m6.6m/s-58.6°C9.3%172.7hPa0V00:00:0000:00:0000:00:00
PU1XMG-162026-09-03 00:11:18-22.62511-42.6632883°166km/h13291m8.9m/s-58.3°C9.2%173.5hPa0V00:00:0000:00:0000:00:00
PU1XMG-162026-09-03 00:11:13-22.62538-42.6655383°162km/h13260m7.0m/s-58.1°C9.0%174.4hPa0V00:00:0000:00:0000:00:00
PU1XMG-162026-09-03 00:11:08-22.62571-42.6677582°168km/h13229m4.3m/s-57.8°C8.8%175.3hPa0V00:00:0000:00:0000:00:00
PU1XMG-162026-09-03 00:11:02-22.62610-42.6704282°161km/h13190m4.3m/s-57.5°C8.5%176.4hPa0V00:00:0000:00:0000:00:00
PU1XMG-162026-09-03 00:10:56-22.62647-42.6730382°162km/h13154m4.7m/s-57.2°C8.3%177.3hPa0V00:00:0000:00:0000:00:00
PU1XMG-162026-09-03 00:10:51-22.62683-42.6752682°166km/h13128m4.2m/s-57.0°C7.9%178.0hPa0V00:00:0000:00:0000:00:00
PU1XMG-162026-09-03 00:10:45-22.62721-42.6779382°162km/h13096m4.4m/s-56.7°C7.9%178.9hPa0V00:00:0000:00:0000:00:00
PU1XMG-162026-09-03 00:10:39-22.62763-42.6805582°164km/h13066m4.1m/s-56.4°C7.8%179.7hPa0V00:00:0000:00:0000:00:00
PU1XMG-162026-09-03 00:10:33-22.62806-42.6832382°162km/h13036m5.9m/s-56.2°C7.8%180.6hPa0V00:00:0000:00:0000:00:00
PU1XMG-162026-09-03 00:10:26-22.62854-42.6863082°162km/h12994m8.1m/s-55.8°C7.3%181.8hPa0V00:00:0000:00:0000:00:00
PU1XMG-162026-09-03 00:10:21-22.62885-42.6885183°162km/h12963m7.2m/s-55.5°C7.0%182.8hPa0V00:00:0000:00:0000:00:00
PU1XMG-162026-09-03 00:10:16-22.62920-42.6907380°164km/h12932m7.7m/s-55.2°C6.8%183.7hPa0V00:00:0000:00:0000:00:00
PU1XMG-162026-09-03 00:10:10-22.62968-42.6933781°164km/h12898m6.1m/s-54.9°C6.9%184.6hPa0V00:00:0000:00:0000:00:00
PU1XMG-162026-09-03 00:10:05-22.63004-42.6955980°166km/h12871m4.6m/s-54.7°C6.7%185.4hPa0V00:00:0000:00:0000:00:00
PU1XMG-162026-09-03 00:09:59-22.63053-42.6982180°161km/h12840m4.7m/s-54.4°C6.5%186.3hPa0V00:00:0000:00:0000:00:00
PU1XMG-162026-09-03 00:09:55-22.63087-42.7003982°164km/h12810m5.2m/s-54.1°C6.4%187.2hPa0V00:00:0000:00:0000:00:00
PU1XMG-162026-09-03 00:09:48-22.63135-42.7030579°164km/h12775m6.6m/s-53.8°C6.3%188.2hPa0V00:00:0000:00:0000:00:00
PU1XMG-162026-09-03 00:09:41-22.63185-42.7061281°164km/h12732m8.3m/s-53.4°C5.9%189.5hPa0V00:00:0000:00:0000:00:00
PU1XMG-162026-09-03 00:09:36-22.63231-42.7083378°166km/h12701m8.0m/s-53.1°C5.8%190.4hPa0V00:00:0000:00:0000:00:00
PU1XMG-162026-09-03 00:09:30-22.63274-42.7109382°162km/h12663m8.0m/s-52.8°C5.7%191.5hPa0V00:00:0000:00:0000:00:00
PU1XMG-162026-09-03 00:09:25-22.63314-42.7131479°164km/h12633m7.0m/s-52.5°C5.7%192.4hPa0V00:00:0000:00:0000:00:00
PU1XMG-162026-09-03 00:09:19-22.63368-42.7162682°164km/h12588m5.8m/s-52.2°C5.5%193.5hPa0V00:00:0000:00:0000:00:00
PU1XMG-162026-09-03 00:09:13-22.63406-42.7184278°157km/h12557m7.4m/s-51.8°C5.3%194.6hPa0V00:00:0000:00:0000:00:00
PU1XMG-162026-09-03 00:09:08-22.63449-42.7205380°161km/h12528m8.0m/s-51.6°C5.3%195.6hPa0V00:00:0000:00:0000:00:00
PU1XMG-162026-09-03 00:09:03-22.63484-42.7227481°161km/h12499m7.4m/s-51.3°C5.2%196.4hPa0V00:00:0000:00:0000:00:00
PU1XMG-162026-09-03 00:08:57-22.63530-42.7252179°153km/h12464m8.6m/s-51.0°C5.1%197.5hPa0V00:00:0000:00:0000:00:00
PU1XMG-162026-09-03 00:08:51-22.63578-42.7278581°166km/h12428m5.0m/s-50.7°C5.0%198.6hPa0V00:00:0000:00:0000:00:00
PU1XMG-162026-09-03 00:08:47-22.63613-42.7300981°161km/h12398m4.9m/s-50.4°C5.0%199.5hPa0V00:00:0000:00:0000:00:00
PU1XMG-162026-09-03 00:08:41-22.63653-42.7322379°162km/h12365m6.0m/s-50.1°C4.9%200.5hPa0V00:00:0000:00:0000:00:00
PU1XMG-162026-09-03 00:08:36-22.63692-42.7344080°159km/h12336m7.3m/s-49.9°C4.8%201.4hPa0V00:00:0000:00:0000:00:00
PU1XMG-162026-09-03 00:08:30-22.63735-42.7369681°161km/h12297m9.6m/s-49.6°C4.6%202.5hPa0V00:00:0000:00:0000:00:00
PU1XMG-162026-09-03 00:08:25-22.63771-42.7390980°157km/h12265m7.2m/s-49.3°C4.4%203.5hPa0V00:00:0000:00:0000:00:00
PU1XMG-162026-09-03 00:08:21-22.63810-42.7411980°161km/h12237m4.4m/s-49.1°C4.5%204.5hPa0V00:00:0000:00:0000:00:00
PU1XMG-162026-09-03 00:08:15-22.63849-42.7433580°159km/h12212m4.9m/s-48.9°C4.5%205.2hPa0V00:00:0000:00:0000:00:00
PU1XMG-162026-09-03 00:08:09-22.63904-42.7463380°157km/h12176m5.1m/s-48.6°C4.4%206.2hPa0V00:00:0000:00:0000:00:00
PU1XMG-162026-09-03 00:08:04-22.63936-42.7480279°161km/h12153m3.8m/s-48.3°C4.3%207.1hPa0V00:00:0000:00:0000:00:00
PU1XMG-162026-09-03 00:07:59-22.63976-42.7501680°161km/h12121m6.3m/s-48.1°C4.2%208.0hPa0V00:00:0000:00:0000:00:00
PU1XMG-162026-09-03 00:07:53-22.64023-42.7527579°162km/h12088m6.7m/s-47.8°C4.1%209.1hPa0V00:00:0000:00:0000:00:00
PU1XMG-162026-09-03 00:07:48-22.64068-42.7549378°162km/h12062m5.3m/s-47.6°C4.1%209.9hPa0V00:00:0000:00:0000:00:00
PU1XMG-162026-09-03 00:07:43-22.64111-42.7570879°159km/h12034m5.4m/s-47.4°C4.0%210.8hPa0V00:00:0000:00:0000:00:00
PU1XMG-162026-09-03 00:07:38-22.64154-42.7592379°162km/h12009m5.0m/s-47.2°C4.0%211.6hPa0V00:00:0000:00:0000:00:00
PU1XMG-162026-09-03 00:07:32-22.64209-42.7618279°159km/h11978m6.8m/s-46.9°C4.0%212.6hPa0V00:00:0000:00:0000:00:00
PU1XMG-162026-09-03 00:07:27-22.64255-42.7639777°166km/h11950m6.3m/s-46.6°C3.9%213.5hPa0V00:00:0000:00:0000:00:00
PU1XMG-162026-09-03 00:07:21-22.64318-42.7665676°162km/h11910m5.6m/s-46.3°C3.8%214.8hPa0V00:00:0000:00:0000:00:00
PU1XMG-162026-09-03 00:07:16-22.64371-42.7686576°153km/h11881m5.6m/s-46.0°C3.7%215.7hPa0V00:00:0000:00:0000:00:00
PU1XMG-162026-09-03 00:07:10-22.64429-42.7712375°170km/h11849m7.0m/s-45.8°C3.6%216.7hPa0V00:00:0000:00:0000:00:00
PU1XMG-162026-09-03 00:07:05-22.64491-42.7733674°161km/h11821m5.2m/s-45.5°C3.6%217.6hPa0V00:00:0000:00:0000:00:00
PU1XMG-162026-09-03 00:06:59-22.64551-42.7759178°161km/h11789m3.2m/s-45.2°C3.5%218.7hPa0V00:00:0000:00:0000:00:00
PU1XMG-162026-09-03 00:06:54-22.64606-42.7779771°161km/h11759m5.6m/s-44.9°C3.5%219.7hPa0V00:00:0000:00:0000:00:00
PU1XMG-162026-09-03 00:06:48-22.64680-42.7805975°162km/h11718m7.1m/s-44.6°C3.4%221.0hPa0V00:00:0000:00:0000:00:00
PU1XMG-162026-09-03 00:06:43-22.64737-42.7826173°151km/h11687m6.2m/s-44.3°C3.4%222.1hPa0V00:00:0000:00:0000:00:00
PU1XMG-162026-09-03 00:06:37-22.64817-42.7849570°155km/h11642m10.6m/s-43.9°C3.3%223.5hPa0V00:00:0000:00:0000:00:00
PU1XMG-162026-09-03 00:06:32-22.64881-42.7870676°162km/h11600m8.9m/s-43.6°C3.2%224.9hPa0V00:00:0000:00:0000:00:00
PU1XMG-162026-09-03 00:06:26-22.64960-42.7895670°164km/h11558m5.4m/s-43.3°C3.3%226.3hPa0V00:00:0000:00:0000:00:00
PU1XMG-162026-09-03 00:06:20-22.65051-42.7920370°161km/h11518m6.1m/s-43.0°C3.2%227.7hPa0V00:00:0000:00:0000:00:00
PU1XMG-162026-09-03 00:06:16-22.65126-42.7940970°164km/h11485m6.9m/s-42.8°C3.2%228.8hPa0V00:00:0000:00:0000:00:00
PU1XMG-162026-09-03 00:06:09-22.65217-42.7966170°164km/h11448m5.0m/s-42.6°C3.2%230.0hPa0V00:00:0000:00:0000:00:00
PU1XMG-162026-09-03 00:05:59-22.65363-42.8008270°164km/h11395m6.0m/s-42.1°C3.2%231.8hPa0V00:00:0000:00:0000:00:00
PU1XMG-162026-09-03 00:05:53-22.65453-42.8033270°164km/h11364m4.1m/s-41.8°C3.2%233.0hPa0V00:00:0000:00:0000:00:00
PU1XMG-162026-09-03 00:05:47-22.65542-42.8058270°164km/h11328m4.6m/s-41.5°C3.0%234.2hPa0V00:00:0000:00:0000:00:00
PU1XMG-162026-09-03 00:05:41-22.65634-42.8083169°162km/h11290m5.8m/s-41.1°C3.0%235.5hPa0V00:00:0000:00:0000:00:00
PU1XMG-162026-09-03 00:05:34-22.65743-42.8112569°166km/h11254m5.2m/s-40.8°C2.9%236.7hPa0V00:00:0000:00:0000:00:00
PU1XMG-162026-09-03 00:05:28-22.65838-42.8137869°166km/h11222m4.7m/s-40.5°C2.9%237.8hPa0V00:00:0000:00:0000:00:00
PU1XMG-162026-09-03 00:05:22-22.65932-42.8162567°159km/h11191m6.1m/s-40.2°C2.8%238.9hPa0V00:00:0000:00:0000:00:00
PU1XMG-162026-09-03 00:05:16-22.66028-42.8187670°172km/h11154m8.3m/s-39.9°C2.8%240.2hPa0V00:00:0000:00:0000:00:00
PU1XMG-162026-09-03 00:05:10-22.66127-42.8213567°175km/h11112m6.9m/s-39.6°C2.8%241.7hPa0V00:00:0000:00:0000:00:00
PU1XMG-162026-09-03 00:04:59-22.66317-42.8259968°172km/h11047m6.0m/s-39.0°C2.6%244.0hPa0V00:00:0000:00:0000:00:00
PU1XMG-162026-09-03 00:04:54-22.66423-42.8285667°168km/h11014m3.7m/s-38.7°C2.6%245.2hPa0V00:00:0000:00:0000:00:00
PU1XMG-162026-09-03 00:04:48-22.66520-42.8310969°170km/h10982m4.4m/s-38.4°C2.6%246.3hPa0V00:00:0000:00:0000:00:00
PU1XMG-162026-09-03 00:04:43-22.66620-42.8336567°172km/h10951m6.5m/s-38.1°C2.5%247.5hPa0V00:00:0000:00:0000:00:00
PU1XMG-162026-09-03 00:04:38-22.66703-42.8357769°168km/h10922m7.0m/s-37.9°C2.5%248.5hPa0V00:00:0000:00:0000:00:00
PU1XMG-162026-09-03 00:04:32-22.66801-42.8383468°172km/h10889m5.9m/s-37.6°C2.5%249.7hPa0V00:00:0000:00:0000:00:00
PU1XMG-162026-09-03 00:04:24-22.66923-42.8413367°172km/h10852m6.8m/s-37.3°C2.4%250.8hPa0V00:00:0000:00:0000:00:00
PU1XMG-162026-09-03 00:04:18-22.67008-42.8434768°170km/h10825m5.0m/s-37.0°C2.4%251.9hPa0V00:00:0000:00:0000:00:00
PU1XMG-162026-09-03 00:04:14-22.67095-42.8456267°173km/h10796m4.6m/s-36.7°C2.3%253.0hPa0V00:00:0000:00:0000:00:00
PU1XMG-162026-09-03 00:04:10-22.67196-42.8482269°170km/h10761m6.0m/s-36.4°C2.3%254.3hPa0V00:00:0000:00:0000:00:00
PU1XMG-162026-09-03 00:04:01-22.67298-42.8507769°170km/h10728m6.8m/s-36.1°C2.3%255.4hPa0V00:00:0000:00:0000:00:00
PU1XMG-162026-09-03 00:03:55-22.67396-42.8533368°170km/h10689m7.2m/s-35.9°C2.2%256.9hPa0V00:00:0000:00:0000:00:00
PU1XMG-162026-09-03 00:03:49-22.67493-42.8559267°173km/h10648m5.0m/s-35.5°C2.2%258.3hPa0V00:00:0000:00:0000:00:00
PU1XMG-162026-09-03 00:03:44-22.67606-42.8585267°173km/h10619m4.4m/s-35.3°C2.2%259.5hPa0V00:00:0000:00:0000:00:00
PU1XMG-162026-09-03 00:03:32-22.67808-42.8632966°170km/h10561m6.2m/s-34.9°C2.2%261.6hPa0V00:00:0000:00:0000:00:00
PU1XMG-162026-09-03 00:03:26-22.67920-42.8658665°177km/h10522m7.3m/s-34.6°C2.2%263.1hPa0V00:00:0000:00:0000:00:00
PU1XMG-162026-09-03 00:03:21-22.68038-42.8685366°181km/h10489m5.9m/s-34.3°C2.2%264.3hPa0V00:00:0000:00:0000:00:00
PU1XMG-162026-09-03 00:03:15-22.68154-42.8711866°179km/h10460m5.5m/s-34.1°C2.2%265.4hPa0V00:00:0000:00:0000:00:00
PU1XMG-162026-09-03 00:03:09-22.68277-42.8738264°179km/h10431m6.2m/s-33.9°C2.1%266.5hPa0V00:00:0000:00:0000:00:00
PU1XMG-162026-09-03 00:02:57-22.69110-42.8918567°181km/h10223m7.3m/s-32.9°C2.3%274.6hPa0V00:00:0000:00:0000:00:00
PU1XMG-162026-09-03 00:02:51-22.69205-42.8940764°177km/h10194m8.5m/s-32.7°C2.2%275.8hPa0V00:00:0000:00:0000:00:00
PU1XMG-162026-09-03 00:02:39-22.69310-42.8962565°179km/h10158m6.2m/s-32.6°C2.3%277.1hPa0V00:00:0000:00:0000:00:00
PU1XMG-162026-09-03 00:02:34-22.69407-42.8984966°181km/h10128m5.4m/s-32.6°C2.2%278.2hPa0V00:00:0000:00:0000:00:00
PU1XMG-162026-09-03 00:02:28-22.69530-42.9011563°173km/h10093m7.7m/s-32.4°C2.1%279.7hPa0V00:00:0000:00:0000:00:00
PU1XMG-162026-09-03 00:02:21-22.69630-42.9032764°181km/h10061m4.7m/s-32.3°C2.1%281.0hPa0V00:00:0000:00:0000:00:00
PU1XMG-162026-09-03 00:02:12-22.69751-42.9058865°168km/h10029m5.6m/s-32.1°C2.1%282.3hPa0V00:00:0000:00:0000:00:00
PU1XMG-162026-09-03 00:02:05-22.69844-42.9079666°177km/h10004m6.9m/s-32.1°C2.2%283.3hPa0V00:00:0000:00:0000:00:00
PU1XMG-162026-09-03 00:01:50-22.70080-42.9130964°173km/h9928m7.8m/s-31.7°C2.4%286.2hPa0V00:00:0000:00:0000:00:00
PU1XMG-162026-09-03 00:01:47-22.70180-42.9153064°183km/h9898m5.4m/s-31.6°C2.4%287.5hPa0V00:00:0000:00:0000:00:00
PU1XMG-162026-09-03 00:01:40-22.70305-42.9179466°177km/h9868m6.6m/s-31.8°C2.4%288.7hPa0V00:00:0000:00:0000:00:00
PU1XMG-162026-09-03 00:01:34-22.70399-42.9201667°183km/h9842m5.9m/s-31.7°C2.6%289.8hPa0V00:00:0000:00:0000:00:00
PU1XMG-162026-09-03 00:01:25-22.70507-42.9228466°175km/h9812m6.6m/s-31.9°C3.4%291.0hPa0V00:00:0000:00:0000:00:00
PU1XMG-162026-09-03 00:01:21-22.70604-42.9250565°183km/h9784m2.9m/s-32.4°C4.3%292.2hPa0V00:00:0000:00:0000:00:00
PU1XMG-162026-09-03 00:01:10-22.70728-42.9277365°181km/h9752m5.9m/s-32.2°C4.2%293.3hPa0V00:00:0000:00:0000:00:00
PU1XMG-162026-09-03 00:00:53-22.70944-42.9330467°177km/h9692m4.5m/s-31.6°C4.0%295.9hPa0V00:00:0000:00:0000:00:00
PU1XMG-162026-09-03 00:00:49-22.71037-42.9352166°173km/h9667m6.2m/s-31.3°C3.9%297.0hPa0V00:00:0000:00:0000:00:00
PU1XMG-162026-09-03 00:00:47-22.71148-42.9378168°173km/h9635m5.0m/s-31.0°C3.8%298.4hPa0V00:00:0000:00:0000:00:00
PU1XMG-162026-09-03 00:00:35-22.71347-42.9426269°177km/h9583m6.2m/s-30.6°C3.6%300.6hPa0V00:00:0000:00:0000:00:00
PU1XMG-162026-09-03 00:00:31-22.71427-42.9448570°177km/h9556m3.8m/s-30.4°C3.6%301.6hPa0V00:00:0000:00:0000:00:00
PU1XMG-162026-09-03 00:00:23-22.71530-42.9475166°172km/h9525m8.1m/s-30.1°C3.4%303.0hPa0V00:00:0000:00:0000:00:00
PU1XMG-162026-09-03 00:00:18-22.71619-42.9497568°179km/h9494m8.1m/s-29.8°C3.2%304.3hPa0V00:00:0000:00:0000:00:00
PU1XMG-162026-09-03 00:00:11-22.71723-42.9523668°170km/h9462m5.1m/s-29.5°C3.3%305.7hPa0V00:00:0000:00:0000:00:00
PU1XMG-162026-09-03 00:00:05-22.71812-42.9545868°181km/h9443m4.5m/s-29.3°C3.2%306.5hPa0V00:00:0000:00:0000:00:00
PU1XMG-162026-09-02 23:59:59-22.71901-42.9568768°173km/h9422m3.2m/s-29.1°C3.2%307.4hPa0V00:00:0000:00:0000:00:00
PU1XMG-162026-09-02 23:59:54-22.72003-42.9595168°177km/h9393m5.0m/s-28.9°C3.1%308.6hPa0V00:00:0000:00:0000:00:00
PU1XMG-162026-09-02 23:59:47-22.72110-42.9622568°175km/h9362m5.3m/s-28.7°C3.1%309.9hPa0V00:00:0000:00:0000:00:00
PU1XMG-162026-09-02 23:59:41-22.72214-42.9648268°172km/h9333m4.4m/s-28.5°C3.0%311.1hPa0V00:00:0000:00:0000:00:00
PU1XMG-162026-09-02 23:59:36-22.72305-42.9670468°183km/h9312m3.0m/s-28.3°C3.0%312.0hPa0V00:00:0000:00:0000:00:00
PU1XMG-162026-09-02 23:59:30-22.72408-42.9697270°172km/h9292m3.9m/s-28.2°C3.0%312.9hPa0V00:00:0000:00:0000:00:00
PU1XMG-162026-09-02 23:59:26-22.72488-42.9719166°175km/h9272m6.8m/s-28.0°C2.9%313.8hPa0V00:00:0000:00:0000:00:00
PU1XMG-162026-09-02 23:59:20-22.72582-42.9740767°175km/h9238m4.3m/s-27.8°C2.9%315.3hPa0V00:00:0000:00:0000:00:00
PU1XMG-162026-09-02 23:59:15-22.72673-42.9762766°177km/h9213m6.2m/s-27.7°C2.8%316.3hPa0V00:00:0000:00:0000:00:00
PU1XMG-162026-09-02 23:59:09-22.72788-42.9788665°173km/h9191m3.5m/s-27.5°C2.9%317.4hPa0V00:00:0000:00:0000:00:00
PU1XMG-162026-09-02 23:59:04-22.72875-42.9810670°173km/h9169m5.3m/s-27.4°C2.9%318.4hPa0V00:00:0000:00:0000:00:00
PU1XMG-162026-09-02 23:58:59-22.72956-42.9831464°161km/h9144m4.6m/s-27.2°C2.9%319.2hPa0V00:00:0000:00:0000:00:00
PU1XMG-162026-09-02 23:58:54-22.73067-42.9856267°173km/h9107m7.0m/s-26.9°C3.0%321.0hPa0V00:00:0000:00:0000:00:00
PU1XMG-162026-09-02 23:58:48-22.73166-42.9879265°192km/h9082m5.2m/s-26.7°C3.0%322.1hPa0V00:00:0000:00:0000:00:00
PU1XMG-162026-09-02 23:58:37-22.73392-42.9925862°175km/h9022m4.5m/s-26.2°C2.9%324.9hPa0V00:00:0000:00:0000:00:00
PU1XMG-162026-09-02 23:58:32-22.73495-42.9947866°186km/h8998m4.2m/s-26.0°C2.8%325.8hPa0V00:00:0000:00:0000:00:00
PU1XMG-162026-09-02 23:58:26-22.73608-42.9973965°170km/h8970m7.2m/s-25.8°C2.8%327.1hPa0V00:00:0000:00:0000:00:00
PU1XMG-162026-09-02 23:58:21-22.73705-42.9995365°179km/h8942m5.5m/s-25.7°C3.3%328.4hPa0V00:00:0000:00:0000:00:00
PU1XMG-162026-09-02 23:58:16-22.73807-43.0017264°175km/h8918m5.3m/s-25.8°C3.2%329.3hPa0V00:00:0000:00:0000:00:00
PU1XMG-162026-09-02 23:58:11-22.73910-43.0037661°172km/h8895m5.2m/s-25.6°C2.8%330.4hPa0V00:00:0000:00:0000:00:00
PU1XMG-162026-09-02 23:58:06-22.74018-43.0059062°179km/h8868m5.9m/s-25.5°C2.4%331.7hPa0V00:00:0000:00:0000:00:00
PU1XMG-162026-09-02 23:57:59-22.74164-43.0088664°172km/h8830m4.2m/s-25.3°C2.4%333.4hPa0V00:00:0000:00:0000:00:00
PU1XMG-162026-09-02 23:57:53-22.74286-43.0114462°175km/h8804m3.6m/s-25.1°C2.4%334.6hPa0V00:00:0000:00:0000:00:00
PU1XMG-162026-09-02 23:57:47-22.74418-43.0139063°170km/h8782m5.7m/s-24.9°C2.4%335.7hPa0V00:00:0000:00:0000:00:00
PU1XMG-162026-09-02 23:57:43-22.74508-43.0160165°168km/h8751m8.0m/s-24.7°C2.3%337.1hPa0V00:00:0000:00:0000:00:00
PU1XMG-162026-09-02 23:57:37-22.74614-43.0180361°172km/h8721m4.6m/s-24.6°C2.4%338.4hPa0V00:00:0000:00:0000:00:00
PU1XMG-162026-09-02 23:57:31-22.74733-43.0206368°179km/h8697m2.8m/s-24.6°C2.5%339.6hPa0V00:00:0000:00:0000:00:00
PU1XMG-162026-09-02 23:57:25-22.74850-43.0230863°166km/h8658m9.2m/s-24.4°C2.6%341.4hPa0V00:00:0000:00:0000:00:00
PU1XMG-162026-09-02 23:57:20-22.74947-43.0251763°170km/h8625m7.1m/s-24.2°C2.6%343.0hPa0V00:00:0000:00:0000:00:00
PU1XMG-162026-09-02 23:57:15-22.75043-43.0272766°170km/h8590m5.7m/s-24.0°C2.5%344.5hPa0V00:00:0000:00:0000:00:00
PU1XMG-162026-09-02 23:57:09-22.75183-43.0302063°166km/h8554m5.3m/s-23.7°C2.4%346.0hPa0V00:00:0000:00:0000:00:00
PU1XMG-162026-09-02 23:57:03-22.75277-43.0321863°164km/h8530m2.7m/s-23.5°C2.5%347.3hPa0V00:00:0000:00:0000:00:00
PU1XMG-162026-09-02 23:56:58-22.75376-43.0342765°172km/h8508m7.5m/s-23.3°C2.4%348.4hPa0V00:00:0000:00:0000:00:00
PU1XMG-162026-09-02 23:56:53-22.75472-43.0362964°157km/h8480m6.3m/s-23.1°C2.4%349.5hPa0V00:00:0000:00:0000:00:00
PU1XMG-162026-09-02 23:56:47-22.75590-43.0387363°179km/h8451m7.5m/s-22.9°C2.3%351.0hPa0V00:00:0000:00:0000:00:00
PU1XMG-162026-09-02 23:56:41-22.75714-43.0412162°166km/h8421m5.5m/s-22.7°C2.6%352.6hPa0V00:00:0000:00:0000:00:00
PU1XMG-162026-09-02 23:56:36-22.75810-43.0431561°155km/h8396m4.7m/s-22.7°C2.9%353.8hPa0V00:00:0000:00:0000:00:00
PU1XMG-162026-09-02 23:56:30-22.75942-43.0455760°175km/h8359m7.4m/s-22.5°C3.0%355.3hPa0V00:00:0000:00:0000:00:00
PU1XMG-162026-09-02 23:56:25-22.76053-43.0475662°168km/h8328m7.4m/s-22.3°C3.0%356.9hPa0V00:00:0000:00:0000:00:00
PU1XMG-162026-09-02 23:56:14-22.76284-43.0521563°172km/h8259m5.5m/s-21.8°C2.9%360.3hPa0V00:00:0000:00:0000:00:00
PU1XMG-162026-09-02 23:56:08-22.76401-43.0545963°166km/h8228m5.3m/s-21.6°C2.8%361.8hPa0V00:00:0000:00:0000:00:00
PU1XMG-162026-09-02 23:56:03-22.76506-43.0566262°172km/h8203m5.6m/s-21.4°C2.8%363.1hPa0V00:00:0000:00:0000:00:00
PU1XMG-162026-09-02 23:55:57-22.76629-43.0591065°168km/h8167m5.9m/s-21.4°C3.0%364.8hPa0V00:00:0000:00:0000:00:00
PU1XMG-162026-09-02 23:55:52-22.76720-43.0611663°172km/h8144m5.3m/s-21.3°C3.0%366.1hPa0V00:00:0000:00:0000:00:00
PU1XMG-162026-09-02 23:55:47-22.76833-43.0633360°186km/h8115m2.8m/s-21.2°C3.0%367.5hPa0V00:00:0000:00:0000:00:00
PU1XMG-162026-09-02 23:55:41-22.76961-43.0658063°168km/h8072m8.9m/s-21.0°C2.9%369.6hPa0V00:00:0000:00:0000:00:00
PU1XMG-162026-09-02 23:55:35-22.77089-43.0683462°181km/h8040m4.0m/s-21.1°C2.8%371.2hPa0V00:00:0000:00:0000:00:00
PU1XMG-162026-09-02 23:55:29-22.77220-43.0707061°162km/h8003m11.1m/s-20.9°C2.8%373.0hPa0V00:00:0000:00:0000:00:00
PU1XMG-162026-09-02 23:55:24-22.77315-43.0726460°155km/h7968m6.3m/s-20.7°C2.7%374.9hPa0V00:00:0000:00:0000:00:00
PU1XMG-162026-09-02 23:55:18-22.77443-43.0748263°146km/h7929m7.6m/s-20.3°C2.6%376.8hPa0V00:00:0000:00:0000:00:00
PU1XMG-162026-09-02 23:55:12-22.77531-43.0771567°155km/h7898m7.3m/s-19.8°C2.6%378.4hPa0V00:00:0000:00:0000:00:00
PU1XMG-162026-09-02 23:55:05-22.77662-43.0796561°150km/h7844m7.1m/s-19.6°C2.5%381.2hPa0V00:00:0000:00:0000:00:00
PU1XMG-162026-09-02 23:55:00-22.77764-43.0813959°151km/h7814m7.9m/s-19.3°C2.4%382.9hPa0V00:00:0000:00:0000:00:00
PU1XMG-162026-09-02 23:54:54-22.77873-43.0834167°130km/h7773m10.1m/s-19.7°C2.3%384.8hPa0V00:00:0000:00:0000:00:00
PU1XMG-162026-09-02 23:54:48-22.77959-43.0853772°135km/h7722m10.5m/s-20.2°C2.4%387.5hPa0V00:00:0000:00:0000:00:00
PU1XMG-162026-09-02 23:54:41-22.78038-43.0878066°137km/h7670m7.0m/s-20.0°C2.5%390.1hPa0V00:00:0000:00:0000:00:00
PU1XMG-162026-09-02 23:54:36-22.78093-43.0895174°128km/h7638m10.2m/s-20.0°C2.5%391.8hPa0V00:00:0000:00:0000:00:00
PU1XMG-162026-09-02 23:54:30-22.78149-43.0915475°131km/h7600m7.8m/s-19.8°C2.6%393.9hPa0V00:00:0000:00:0000:00:00
PU1XMG-162026-09-02 23:54:25-22.78202-43.0933371°130km/h7569m4.8m/s-19.6°C2.7%395.2hPa0V00:00:0000:00:0000:00:00
PU1XMG-162026-09-02 23:54:20-22.78256-43.0950178°130km/h7540m4.7m/s-19.5°C3.0%396.8hPa0V00:00:0000:00:0000:00:00
PU1XMG-162026-09-02 23:54:14-22.78298-43.0970378°124km/h7493m4.6m/s-19.5°C3.5%399.5hPa0V00:00:0000:00:0000:00:00
PU1XMG-162026-09-02 23:54:08-22.78350-43.0991979°148km/h7465m6.9m/s-19.4°C3.7%400.9hPa0V00:00:0000:00:0000:00:00
PU1XMG-162026-09-02 23:54:03-22.78381-43.1010784°131km/h7430m9.5m/s-19.2°C3.9%402.9hPa0V00:00:0000:00:0000:00:00
PU1XMG-162026-09-02 23:53:58-22.78390-43.1028290°126km/h7398m4.6m/s-18.9°C3.9%404.8hPa0V00:00:0000:00:0000:00:00
PU1XMG-162026-09-02 23:53:52-22.78404-43.1049885°133km/h7353m10.1m/s-18.5°C3.8%407.0hPa0V00:00:0000:00:0000:00:00
PU1XMG-162026-09-02 23:53:46-22.78447-43.1070679°135km/h7308m6.0m/s-18.1°C3.8%409.5hPa0V00:00:0000:00:0000:00:00
PU1XMG-162026-09-02 23:53:41-22.78465-43.1089487°142km/h7275m6.7m/s-17.8°C3.4%411.4hPa0V00:00:0000:00:0000:00:00
PU1XMG-162026-09-02 23:53:35-22.78493-43.1111883°133km/h7234m9.8m/s-17.5°C3.2%413.7hPa0V00:00:0000:00:0000:00:00
PU1XMG-162026-09-02 23:53:30-22.78506-43.1129785°128km/h7200m4.4m/s-17.3°C3.2%415.6hPa0V00:00:0000:00:0000:00:00
PU1XMG-162026-09-02 23:53:24-22.78531-43.1150581°131km/h7160m8.8m/s-17.0°C3.0%417.6hPa0V00:00:0000:00:0000:00:00
PU1XMG-162026-09-02 23:53:18-22.78565-43.1171586°135km/h7124m5.2m/s-16.7°C3.0%419.6hPa0V00:00:0000:00:0000:00:00
PU1XMG-162026-09-02 23:53:13-22.78585-43.1189880°133km/h7094m5.9m/s-16.4°C2.9%421.3hPa0V00:00:0000:00:0000:00:00
PU1XMG-162026-09-02 23:53:05-22.78636-43.1217182°133km/h7044m7.9m/s-16.1°C2.8%424.0hPa0V00:00:0000:00:0000:00:00
PU1XMG-162026-09-02 23:52:59-22.78669-43.1238783°135km/h7009m4.8m/s-16.1°C3.0%426.2hPa0V00:00:0000:00:0000:00:00
PU1XMG-162026-09-02 23:52:53-22.78697-43.1260579°124km/h6972m7.3m/s-16.2°C3.4%428.3hPa0V00:00:0000:00:0000:00:00
PU1XMG-162026-09-02 23:52:48-22.78742-43.1276474°130km/h6942m6.9m/s-16.4°C3.6%430.0hPa0V00:00:0000:00:0000:00:00
PU1XMG-162026-09-02 23:52:43-22.78788-43.1293275°119km/h6906m5.8m/s-16.5°C3.5%432.0hPa0V00:00:0000:00:0000:00:00
PU1XMG-162026-09-02 23:52:37-22.78836-43.1312576°117km/h6869m6.4m/s-16.6°C3.3%434.1hPa0V00:00:0000:00:0000:00:00
PU1XMG-162026-09-02 23:52:32-22.78875-43.1327076°111km/h6842m6.7m/s-16.5°C3.3%435.7hPa0V00:00:0000:00:0000:00:00
PU1XMG-162026-09-02 23:52:26-22.78908-43.1344879°113km/h6803m6.4m/s-17.0°C5.1%438.1hPa0V00:00:0000:00:0000:00:00
PU1XMG-162026-09-02 23:52:20-22.78944-43.1363074°106km/h6772m7.7m/s-17.6°C8.2%439.9hPa0V00:00:0000:00:0000:00:00
PU1XMG-162026-09-02 23:52:14-22.78984-43.1378280°99km/h6732m5.8m/s-18.4°C15.1%442.2hPa0V00:00:0000:00:0000:00:00
PU1XMG-162026-09-02 23:52:08-22.79029-43.1393572°99km/h6698m7.0m/s-19.1°C27.5%444.4hPa0V00:00:0000:00:0000:00:00
PU1XMG-162026-09-02 23:52:02-22.79063-43.1409075°102km/h6662m4.9m/s-18.9°C29.2%446.4hPa0V00:00:0000:00:0000:00:00
PU1XMG-162026-09-02 23:51:56-22.79108-43.1425379°100km/h6628m5.6m/s-18.7°C29.2%448.5hPa0V00:00:0000:00:0000:00:00
PU1XMG-162026-09-02 23:51:51-22.79145-43.1438871°100km/h6597m7.5m/s-18.4°C28.8%450.3hPa0V00:00:0000:00:0000:00:00
PU1XMG-162026-09-02 23:51:46-22.79184-43.1450769°84km/h6565m4.1m/s-18.1°C28.5%452.3hPa0V00:00:0000:00:0000:00:00
PU1XMG-162026-09-02 23:51:41-22.79216-43.1461674°84km/h6536m8.3m/s-17.8°C27.7%454.1hPa0V00:00:0000:00:0000:00:00
PU1XMG-162026-09-02 23:51:35-22.79247-43.1476077°106km/h6490m6.3m/s-17.3°C26.8%456.9hPa0V00:00:0000:00:0000:00:00
PU1XMG-162026-09-02 23:51:27-22.79305-43.1494867°77km/h6443m8.3m/s-16.9°C25.9%459.6hPa0V00:00:0000:00:0000:00:00
PU1XMG-162026-09-02 23:51:21-22.79354-43.1509379°93km/h6406m6.8m/s-16.5°C25.4%461.9hPa0V00:00:0000:00:0000:00:00
PU1XMG-162026-09-02 23:51:14-22.79406-43.1525474°88km/h6357m5.8m/s-16.1°C24.7%464.9hPa0V00:00:0000:00:0000:00:00
PU1XMG-162026-09-02 23:51:09-22.79444-43.1539777°102km/h6318m9.0m/s-15.7°C23.7%467.2hPa0V00:00:0000:00:0000:00:00
PU1XMG-162026-09-02 23:51:03-22.79469-43.1550867°73km/h6286m7.7m/s-15.4°C23.1%469.2hPa0V00:00:0000:00:0000:00:00
PU1XMG-162026-09-02 23:50:57-22.79525-43.1562766°91km/h6254m8.1m/s-15.1°C23.0%471.2hPa0V00:00:0000:00:0000:00:00
PU1XMG-162026-09-02 23:50:44-22.79626-43.1591177°97km/h6167m6.0m/s-14.2°C21.9%476.7hPa0V00:00:0000:00:0000:00:00
PU1XMG-162026-09-02 23:50:39-22.79646-43.1601575°68km/h6140m5.5m/s-14.0°C21.9%478.4hPa0V00:00:0000:00:0000:00:00
PU1XMG-162026-09-02 23:50:26-22.79719-43.1629477°75km/h6070m5.6m/s-13.3°C21.1%482.9hPa0V00:00:0000:00:0000:00:00
PU1XMG-162026-09-02 23:50:20-22.79759-43.1641574°75km/h6041m4.7m/s-13.1°C21.1%484.7hPa0V00:00:0000:00:0000:00:00
PU1XMG-162026-09-02 23:50:14-22.79797-43.1652066°75km/h6010m4.9m/s-12.9°C21.6%486.6hPa0V00:00:0000:00:0000:00:00
PU1XMG-162026-09-02 23:50:08-22.79833-43.1664883°77km/h5977m9.0m/s-12.6°C22.2%488.9hPa0V00:00:0000:00:0000:00:00
PU1XMG-162026-09-02 23:50:03-22.79865-43.1677372°93km/h5945m6.1m/s-12.3°C21.9%491.1hPa0V00:00:0000:00:0000:00:00
PU1XMG-162026-09-02 23:49:56-22.79895-43.1691180°77km/h5907m8.7m/s-12.0°C20.4%493.1hPa0V00:00:0000:00:0000:00:00
PU1XMG-162026-09-02 23:49:51-22.79910-43.1702181°82km/h5877m5.9m/s-11.7°C19.6%495.2hPa0V00:00:0000:00:0000:00:00
PU1XMG-162026-09-02 23:49:45-22.79947-43.1714581°82km/h5845m5.8m/s-11.4°C18.3%497.1hPa0V00:00:0000:00:0000:00:00
PU1XMG-162026-09-02 23:49:40-22.79965-43.1728583°80km/h5808m7.5m/s-11.1°C16.4%499.6hPa0V00:00:0000:00:0000:00:00
PU1XMG-162026-09-02 23:49:34-22.79984-43.1738074°73km/h5780m4.2m/s-10.9°C15.7%501.5hPa0V00:00:0000:00:0000:00:00
PU1XMG-162026-09-02 23:49:28-22.80009-43.1748680°73km/h5746m8.4m/s-10.6°C14.2%503.7hPa0V00:00:0000:00:0000:00:00
PU1XMG-162026-09-02 23:49:22-22.80038-43.1761285°77km/h5704m8.4m/s-10.6°C13.5%506.4hPa0V00:00:0000:00:0000:00:00
PU1XMG-162026-09-02 23:49:17-22.80036-43.1771892°69km/h5669m3.8m/s-10.4°C13.8%508.5hPa0V00:00:0000:00:0000:00:00
PU1XMG-162026-09-02 23:49:00-22.80060-43.1808187°84km/h5571m4.8m/s-9.5°C10.5%515.0hPa0V00:00:0000:00:0000:00:00
PU1XMG-162026-09-02 23:48:54-22.80076-43.1820082°69km/h5533m4.9m/s-9.2°C9.9%517.5hPa0V00:00:0000:00:0000:00:00
PU1XMG-162026-09-02 23:48:48-22.80084-43.1831980°71km/h5499m5.7m/s-8.8°C8.7%519.9hPa0V00:00:0000:00:0000:00:00
PU1XMG-162026-09-02 23:48:42-22.80092-43.1844488°75km/h5463m10.0m/s-8.5°C8.1%522.4hPa0V00:00:0000:00:0000:00:00
PU1XMG-162026-09-02 23:48:37-22.80096-43.1853090°69km/h5433m5.2m/s-8.2°C8.0%524.6hPa0V00:00:0000:00:0000:00:00
PU1XMG-162026-09-02 23:48:31-22.80093-43.1865398°68km/h5396m4.8m/s-7.8°C7.8%527.0hPa0V00:00:0000:00:0000:00:00
PU1XMG-162026-09-02 23:48:25-22.80083-43.1877993°80km/h5359m5.6m/s-7.5°C7.6%529.7hPa0V00:00:0000:00:0000:00:00
PU1XMG-162026-09-02 23:48:21-22.80079-43.1887497°64km/h5331m7.6m/s-7.2°C7.3%531.4hPa0V00:00:0000:00:0000:00:00
PU1XMG-162026-09-02 23:48:14-22.80073-43.1899995°77km/h5296m9.2m/s-6.9°C6.5%533.8hPa0V00:00:0000:00:0000:00:00
PU1XMG-162026-09-02 23:48:08-22.80078-43.1910888°60km/h5253m4.0m/s-6.5°C6.1%536.8hPa0V00:00:0000:00:0000:00:00
PU1XMG-162026-09-02 23:48:03-22.80090-43.1923587°84km/h5213m5.4m/s-6.1°C5.6%539.5hPa0V00:00:0000:00:0000:00:00
PU1XMG-162026-09-02 23:47:57-22.80103-43.1934082°75km/h5182m8.1m/s-5.8°C5.5%541.6hPa0V00:00:0000:00:0000:00:00
PU1XMG-162026-09-02 23:47:52-22.80101-43.1944098°69km/h5151m6.6m/s-5.5°C5.2%543.7hPa0V00:00:0000:00:0000:00:00
PU1XMG-162026-09-02 23:47:46-22.80095-43.1954797°71km/h5121m5.4m/s-5.2°C5.0%545.9hPa0V00:00:0000:00:0000:00:00
PU1XMG-162026-09-02 23:47:41-22.80094-43.1965987°88km/h5094m11.6m/s-4.9°C4.8%547.8hPa0V00:00:0000:00:0000:00:00
PU1XMG-162026-09-02 23:47:35-22.80095-43.1977889°75km/h5046m6.7m/s-4.5°C4.1%551.1hPa0V00:00:0000:00:0000:00:00
PU1XMG-162026-09-02 23:47:30-22.80100-43.1989092°78km/h5016m5.3m/s-4.3°C4.3%553.2hPa0V00:00:0000:00:0000:00:00
PU1XMG-162026-09-02 23:47:26-22.80104-43.1999183°73km/h4985m6.2m/s-4.0°C4.4%555.2hPa0V00:00:0000:00:0000:00:00
PU1XMG-162026-09-02 23:47:19-22.80107-43.2010594°78km/h4951m7.2m/s-3.7°C4.0%557.5hPa0V00:00:0000:00:0000:00:00
PU1XMG-162026-09-02 23:47:13-22.80100-43.2023796°71km/h4916m5.2m/s-3.4°C3.5%560.0hPa0V00:00:0000:00:0000:00:00
PU1XMG-162026-09-02 23:47:08-22.80097-43.2032197°68km/h4889m4.9m/s-3.2°C2.8%561.9hPa0V00:00:0000:00:0000:00:00
PU1XMG-162026-09-02 23:47:04-22.80097-43.2042378°80km/h4854m5.4m/s-2.9°C2.5%564.4hPa0V00:00:0000:00:0000:00:00
PU1XMG-162026-09-02 23:46:57-22.80117-43.2054994°75km/h4820m8.6m/s-2.7°C2.3%566.9hPa0V00:00:0000:00:0000:00:00
PU1XMG-162026-09-02 23:46:52-22.80109-43.2065491°75km/h4787m5.2m/s-2.5°C2.0%569.2hPa0V00:00:0000:00:0000:00:00
PU1XMG-162026-09-02 23:46:47-22.80106-43.2075198°66km/h4757m7.1m/s-2.2°C2.0%571.4hPa0V00:00:0000:00:0000:00:00
PU1XMG-162026-09-02 23:46:42-22.80119-43.2084476°77km/h4725m6.6m/s-2.1°C1.9%573.7hPa0V00:00:0000:00:0000:00:00
PU1XMG-162026-09-02 23:46:37-22.80123-43.2093996°60km/h4695m5.7m/s-1.9°C1.9%576.0hPa0V00:00:0000:00:0000:00:00
PU1XMG-162026-09-02 23:46:32-22.80120-43.2103294°69km/h4663m11.0m/s-1.8°C1.9%578.2hPa0V00:00:0000:00:0000:00:00
PU1XMG-162026-09-02 23:46:26-22.80125-43.2112982°66km/h4615m4.9m/s-1.8°C1.5%581.8hPa0V00:00:0000:00:0000:00:00
PU1XMG-162026-09-02 23:46:21-22.80147-43.2121268°57km/h4586m5.5m/s-1.7°C1.4%583.9hPa0V00:00:0000:00:0000:00:00
PU1XMG-162026-09-02 23:46:15-22.80168-43.2129994°51km/h4545m6.5m/s-1.5°C1.2%586.9hPa0V00:00:0000:00:0000:00:00
PU1XMG-162026-09-02 23:46:09-22.80167-43.2138984°55km/h4500m5.6m/s-1.3°C1.2%590.2hPa0V00:00:0000:00:0000:00:00
PU1XMG-162026-09-02 23:46:04-22.80187-43.2146973°55km/h4461m4.8m/s-1.3°C1.1%592.8hPa0V00:00:0000:00:0000:00:00
PU1XMG-162026-09-02 23:45:59-22.80193-43.2154287°57km/h4432m6.3m/s-1.6°C1.2%595.0hPa0V00:00:0000:00:0000:00:00
PU1XMG-162026-09-02 23:45:53-22.80209-43.2162987°57km/h4390m5.7m/s-1.3°C1.3%598.2hPa0V00:00:0000:00:0000:00:00
PU1XMG-162026-09-02 23:45:48-22.80217-43.2169973°53km/h4365m4.3m/s-1.1°C1.3%600.4hPa0V00:00:0000:00:0000:00:00
PU1XMG-162026-09-02 23:45:42-22.80230-43.2178893°58km/h4332m6.1m/s-0.9°C1.1%602.8hPa0V00:00:0000:00:0000:00:00
PU1XMG-162026-09-02 23:45:36-22.80230-43.2187883°49km/h4295m6.6m/s-0.7°C0.9%605.5hPa0V00:00:0000:00:0000:00:00
PU1XMG-162026-09-02 23:45:31-22.80246-43.2193174°42km/h4267m5.5m/s-0.6°C1.0%607.9hPa0V00:00:0000:00:0000:00:00
PU1XMG-162026-09-02 23:45:25-22.80272-43.2201969°62km/h4233m6.1m/s-0.7°C0.9%610.6hPa0V00:00:0000:00:0000:00:00
PU1XMG-162026-09-02 23:45:19-22.80297-43.2210877°40km/h4194m9.1m/s-1.1°C1.4%613.3hPa0V00:00:0000:00:0000:00:00
PU1XMG-162026-09-02 23:45:13-22.80309-43.2216283°42km/h4158m6.2m/s-1.3°C1.8%616.2hPa0V00:00:0000:00:0000:00:00
PU1XMG-162026-09-02 23:45:08-22.80313-43.2221674°33km/h4128m5.5m/s-1.8°C2.0%618.4hPa0V00:00:0000:00:0000:00:00
PU1XMG-162026-09-02 23:45:03-22.80333-43.2227176°53km/h4096m6.1m/s-1.7°C1.9%620.9hPa0V00:00:0000:00:0000:00:00
PU1XMG-162026-09-02 23:44:57-22.80367-43.2234149°33km/h4061m7.8m/s-1.8°C2.1%623.5hPa0V00:00:0000:00:0000:00:00
PU1XMG-162026-09-02 23:44:51-22.80388-43.2238570°44km/h4024m6.0m/s-1.6°C2.1%626.4hPa0V00:00:0000:00:0000:00:00
PU1XMG-162026-09-02 23:44:46-22.80406-43.2243860°31km/h3997m6.2m/s-1.4°C2.2%628.6hPa0V00:00:0000:00:0000:00:00
PU1XMG-162026-09-02 23:44:40-22.80432-43.2247879°33km/h3957m4.5m/s-1.1°C1.8%631.8hPa0V00:00:0000:00:0000:00:00
PU1XMG-162026-09-02 23:44:35-22.80453-43.2253251°44km/h3929m6.3m/s-0.9°C1.7%634.0hPa0V00:00:0000:00:0000:00:00
PU1XMG-162026-09-02 23:44:23-22.80507-43.2262463°35km/h3854m7.6m/s-0.3°C1.6%640.0hPa0V00:00:0000:00:0000:00:00
PU1XMG-162026-09-02 23:44:18-22.80528-43.2267557°35km/h3821m5.2m/s-0.1°C1.5%642.8hPa0V00:00:0000:00:0000:00:00
PU1XMG-162026-09-02 23:44:12-22.80551-43.2271761°35km/h3787m6.5m/s-0.2°C1.9%645.3hPa0V00:00:0000:00:0000:00:00
PU1XMG-162026-09-02 23:44:07-22.80568-43.2275479°31km/h3754m6.0m/s-0.5°C3.0%648.0hPa0V00:00:0000:00:0000:00:00
PU1XMG-162026-09-02 23:44:02-22.80584-43.2279267°27km/h3724m9.2m/s-0.4°C3.4%650.5hPa0V00:00:0000:00:0000:00:00
PU1XMG-162026-09-02 23:43:57-22.80596-43.2283556°31km/h3693m7.0m/s-0.1°C3.5%653.1hPa0V00:00:0000:00:0000:00:00
PU1XMG-162026-09-02 23:43:51-22.80622-43.2287970°44km/h3653m6.9m/s0.3°C3.5%656.3hPa0V00:00:0000:00:0000:00:00
PU1XMG-162026-09-02 23:43:47-22.80643-43.2293872°44km/h3622m8.9m/s0.6°C3.5%658.7hPa0V00:00:0000:00:0000:00:00
PU1XMG-162026-09-02 23:43:40-22.80660-43.2299562°40km/h3579m5.5m/s0.6°C7.5%662.3hPa0V00:00:0000:00:0000:00:00
PU1XMG-162026-09-02 23:43:35-22.80675-43.2304472°26km/h3549m8.7m/s0.3°C10.7%664.6hPa0V00:00:0000:00:0000:00:00
PU1XMG-162026-09-02 23:43:29-22.80687-43.2308286°29km/h3509m8.1m/s0.0°C9.5%667.9hPa0V00:00:0000:00:0000:00:00
PU1XMG-162026-09-02 23:43:24-22.80696-43.2312689°29km/h3477m9.5m/s-0.4°C15.4%670.5hPa0V00:00:0000:00:0000:00:00
PU1XMG-162026-09-02 23:43:19-22.80691-43.2318090°40km/h3447m5.0m/s-0.8°C35.2%673.4hPa0V00:00:0000:00:0000:00:00
PU1XMG-162026-09-02 23:43:13-22.80690-43.23225100°26km/h3410m7.4m/s-0.8°C51.6%676.3hPa0V00:00:0000:00:0000:00:00
PU1XMG-162026-09-02 23:43:07-22.80677-43.23284125°35km/h3374m6.2m/s-0.5°C57.7%679.7hPa0V00:00:0000:00:0000:00:00
PU1XMG-162026-09-02 23:43:01-22.80659-43.2333487°40km/h3337m6.5m/s-0.2°C55.4%682.4hPa0V00:00:0000:00:0000:00:00
PU1XMG-162026-09-02 23:42:55-22.80644-43.23400117°37km/h3299m5.1m/s0.1°C60.4%685.7hPa0V00:00:0000:00:0000:00:00
PU1XMG-162026-09-02 23:42:50-22.80642-43.2345692°42km/h3257m5.4m/s0.6°C56.9%689.4hPa0V00:00:0000:00:0000:00:00
PU1XMG-162026-09-02 23:42:43-22.80619-43.23524103°46km/h3223m7.8m/s0.8°C69.6%692.5hPa0V00:00:0000:00:0000:00:00
PU1XMG-162026-09-02 23:42:38-22.80616-43.2358699°42km/h3187m4.9m/s1.2°C62.5%695.5hPa0V00:00:0000:00:0000:00:00
PU1XMG-162026-09-02 23:42:32-22.80605-43.23654100°38km/h3153m6.4m/s1.5°C62.5%698.3hPa0V00:00:0000:00:0000:00:00
PU1XMG-162026-09-02 23:42:26-22.80580-43.23697122°38km/h3109m5.4m/s1.8°C71.5%702.1hPa0V00:00:0000:00:0000:00:00
PU1XMG-162026-09-02 23:42:20-22.80571-43.2376088°47km/h3068m10.6m/s2.2°C70.1%705.6hPa0V00:00:0000:00:0000:00:00
PU1XMG-162026-09-02 23:42:15-22.80557-43.23823110°35km/h3033m5.7m/s2.5°C70.5%708.7hPa0V00:00:0000:00:0000:00:00
PU1XMG-162026-09-02 23:42:10-22.80559-43.2386986°42km/h3007m4.8m/s2.8°C68.9%711.0hPa0V00:00:0000:00:0000:00:00
PU1XMG-162026-09-02 23:42:05-22.80548-43.23925111°44km/h2976m9.2m/s3.1°C66.3%713.8hPa0V00:00:0000:00:0000:00:00
PU1XMG-162026-09-02 23:41:59-22.80543-43.2399496°33km/h2934m6.5m/s3.5°C60.1%717.5hPa0V00:00:0000:00:0000:00:00
PU1XMG-162026-09-02 23:41:54-22.80536-43.2404297°44km/h2902m6.2m/s3.8°C64.7%720.3hPa0V00:00:0000:00:0000:00:00
PU1XMG-162026-09-02 23:41:48-22.80516-43.24100117°31km/h2865m6.6m/s4.2°C54.0%723.5hPa0V00:00:0000:00:0000:00:00
PU1XMG-162026-09-02 23:41:43-22.80512-43.2413692°22km/h2835m10.3m/s4.5°C52.6%726.2hPa0V00:00:0000:00:0000:00:00
PU1XMG-162026-09-02 23:41:37-22.80505-43.2418099°37km/h2797m4.7m/s4.9°C54.3%729.6hPa0V00:00:0000:00:0000:00:00
PU1XMG-162026-09-02 23:41:32-22.80487-43.24228117°37km/h2770m6.5m/s5.2°C54.5%732.3hPa0V00:00:0000:00:0000:00:00
PU1XMG-162026-09-02 23:41:26-22.80475-43.24294104°46km/h2735m9.1m/s5.6°C50.0%735.3hPa0V00:00:0000:00:0000:00:00
PU1XMG-162026-09-02 23:41:21-22.80459-43.2434394°40km/h2706m4.9m/s5.6°C59.5%738.0hPa0V00:00:0000:00:0000:00:00
PU1XMG-162026-09-02 23:41:15-22.80459-43.24417102°37km/h2670m8.7m/s5.7°C64.2%741.2hPa0V00:00:0000:00:0000:00:00
PU1XMG-162026-09-02 23:41:10-22.80442-43.24462106°33km/h2645m5.0m/s5.9°C66.7%743.6hPa0V00:00:0000:00:0000:00:00
PU1XMG-162026-09-02 23:41:05-22.80444-43.2450489°37km/h2613m7.4m/s6.2°C57.4%746.5hPa0V00:00:0000:00:0000:00:00
PU1XMG-162026-09-02 23:40:59-22.80445-43.2456787°42km/h2573m9.1m/s6.4°C50.0%750.2hPa0V00:00:0000:00:0000:00:00
PU1XMG-162026-09-02 23:40:54-22.80443-43.2462888°42km/h2543m7.6m/s6.6°C47.3%752.8hPa0V00:00:0000:00:0000:00:00
PU1XMG-162026-09-02 23:40:48-22.80450-43.2467170°27km/h2501m6.2m/s6.9°C44.7%756.7hPa0V00:00:0000:00:0000:00:00
PU1XMG-162026-09-02 23:40:42-22.80453-43.24706101°18km/h2462m6.6m/s7.0°C50.5%760.2hPa0V00:00:0000:00:0000:00:00
PU1XMG-162026-09-02 23:40:36-22.80460-43.2474274°33km/h2429m5.8m/s7.3°C48.9%763.1hPa0V00:00:0000:00:0000:00:00
PU1XMG-162026-09-02 23:40:32-22.80460-43.24775112°15km/h2398m5.0m/s7.6°C47.8%765.9hPa0V00:00:0000:00:0000:00:00
PU1XMG-162026-09-02 23:40:26-22.80468-43.2480358°33km/h2367m5.8m/s7.9°C47.5%768.7hPa0V00:00:0000:00:0000:00:00
PU1XMG-162026-09-02 23:40:14-22.80480-43.2489992°22km/h2294m7.8m/s8.1°C50.7%775.6hPa0V00:00:0000:00:0000:00:00
PU1XMG-162026-09-02 23:40:09-22.80493-43.2493044°18km/h2264m8.1m/s8.0°C52.5%778.6hPa0V00:00:0000:00:0000:00:00
PU1XMG-162026-09-02 23:40:03-22.80504-43.2495563°15km/h2230m8.6m/s7.8°C64.1%781.9hPa0V00:00:0000:00:0000:00:00
PU1XMG-162026-09-02 23:39:58-22.80514-43.2497351°27km/h2195m5.5m/s7.8°C65.3%785.2hPa0V00:00:0000:00:0000:00:00
PU1XMG-162026-09-02 23:39:53-22.80540-43.2501066°31km/h2168m5.7m/s7.7°C69.9%787.9hPa0V00:00:0000:00:0000:00:00
PU1XMG-162026-09-02 23:39:47-22.80554-43.2504975°29km/h2134m6.7m/s7.4°C79.4%791.0hPa0V00:00:0000:00:0000:00:00
PU1XMG-162026-09-02 23:39:42-22.80572-43.2508031°29km/h2103m4.1m/s7.0°C88.5%794.1hPa0V00:00:0000:00:0000:00:00
PU1XMG-162026-09-02 23:39:37-22.80599-43.2510263°29km/h2074m5.9m/s6.9°C93.5%797.1hPa0V00:00:0000:00:0000:00:00
PU1XMG-162026-09-02 23:39:31-22.80619-43.2514167°26km/h2039m5.2m/s7.0°C94.2%800.0hPa0V00:00:0000:00:0000:00:00
PU1XMG-162026-09-02 23:39:25-22.80622-43.25173102°16km/h2010m5.3m/s7.1°C93.4%803.0hPa0V00:00:0000:00:0000:00:00
PU1XMG-162026-09-02 23:39:20-22.80620-43.2518859°9km/h1981m8.4m/s7.3°C93.8%805.9hPa0V00:00:0000:00:0000:00:00
PU1XMG-162026-09-02 23:39:15-22.80625-43.2519685°11km/h1949m5.4m/s7.2°C95.7%809.1hPa0V00:00:0000:00:0000:00:00
PU1XMG-162026-09-02 23:39:09-22.80635-43.252012km/h1911m4.7m/s7.3°C97.3%812.7hPa0V00:00:0000:00:0000:00:00
PU1XMG-162026-09-02 23:39:03-22.80639-43.25196271°5km/h1876m5.8m/s7.5°C93.7%816.0hPa0V00:00:0000:00:0000:00:00
PU1XMG-162026-09-02 23:38:58-22.80640-43.2519484°9km/h1845m5.7m/s7.7°C92.8%819.2hPa0V00:00:0000:00:0000:00:00
PU1XMG-162026-09-02 23:38:52-22.80655-43.25198358°16km/h1815m8.3m/s8.0°C91.4%822.0hPa0V00:00:0000:00:0000:00:00
PU1XMG-162026-09-02 23:38:47-22.80659-43.25202168°5km/h1788m7.3m/s8.1°C93.9%824.8hPa0V00:00:0000:00:0000:00:00
PU1XMG-162026-09-02 23:38:42-22.80665-43.25203360°5km/h1761m9.3m/s8.2°C94.2%827.5hPa0V00:00:0000:00:0000:00:00
PU1XMG-162026-09-02 23:38:37-22.80667-43.2521363°18km/h1733m7.1m/s8.3°C93.4%830.4hPa0V00:00:0000:00:0000:00:00
PU1XMG-162026-09-02 23:38:31-22.80684-43.2523450°13km/h1704m6.1m/s8.5°C92.7%833.5hPa0V00:00:0000:00:0000:00:00
PU1XMG-162026-09-02 23:38:26-22.80693-43.25243361°9km/h1665m4.9m/s8.7°C93.9%836.8hPa0V00:00:0000:00:0000:00:00
PU1XMG-162026-09-02 23:38:19-22.80699-43.25240354°9km/h1635m3.8m/s8.9°C94.4%840.2hPa0V00:00:0000:00:0000:00:00
PU1XMG-162026-09-02 23:38:14-22.80705-43.25233271°2km/h1603m8.4m/s9.2°C92.7%843.3hPa0V00:00:0000:00:0000:00:00
PU1XMG-162026-09-02 23:38:08-22.80715-43.25229276°9km/h1570m6.4m/s9.5°C85.8%846.8hPa0V00:00:0000:00:0000:00:00
PU1XMG-162026-09-02 23:38:03-22.80717-43.2523117°11km/h1544m6.0m/s9.7°C85.0%849.4hPa0V00:00:0000:00:0000:00:00
PU1XMG-162026-09-02 23:37:57-22.80723-43.25227118°4km/h1514m5.2m/s9.8°C85.8%852.6hPa0V00:00:0000:00:0000:00:00
PU1XMG-162026-09-02 23:37:52-22.80725-43.252230km/h1484m8.1m/s10.0°C86.4%855.4hPa0V00:00:0000:00:0000:00:00
PU1XMG-162026-09-02 23:37:47-22.80734-43.25229341°13km/h1459m4.0m/s10.0°C92.9%858.2hPa0V00:00:0000:00:0000:00:00
PU1XMG-162026-09-02 23:37:42-22.80736-43.25225121°5km/h1433m3.8m/s10.2°C97.9%861.1hPa0V00:00:0000:00:0000:00:00
PU1XMG-162026-09-02 23:37:36-22.80741-43.252210km/h1400m5.9m/s10.5°C97.6%864.4hPa0V00:00:0000:00:0000:00:00
PU1XMG-162026-09-02 23:37:32-22.80751-43.25224352°16km/h1372m6.0m/s10.7°C96.9%867.2hPa0V00:00:0000:00:0000:00:00
PU1XMG-162026-09-02 23:37:25-22.80753-43.25226198°5km/h1336m7.6m/s11.0°C96.8%870.9hPa0V00:00:0000:00:0000:00:00
PU1XMG-162026-09-02 23:37:20-22.80756-43.25219264°9km/h1306m8.5m/s11.3°C94.9%874.1hPa0V00:00:0000:00:0000:00:00
PU1XMG-162026-09-02 23:37:14-22.80753-43.25220330°5km/h1271m4.7m/s11.5°C86.0%878.1hPa0V00:00:0000:00:0000:00:00
PU1XMG-162026-09-02 23:37:09-22.80760-43.25217324°7km/h1238m8.1m/s11.8°C84.9%881.1hPa0V00:00:0000:00:0000:00:00
PU1XMG-162026-09-02 23:37:04-22.80755-43.25207164°5km/h1205m4.6m/s12.1°C83.1%884.5hPa0V00:00:0000:00:0000:00:00
PU1XMG-162026-09-02 23:36:59-22.80758-43.25203272°7km/h1176m6.1m/s12.3°C80.9%887.3hPa0V00:00:0000:00:0000:00:00
PU1XMG-162026-09-02 23:36:53-22.80753-43.25197255°9km/h1145m5.3m/s12.6°C79.8%890.6hPa0V00:00:0000:00:0000:00:00
PU1XMG-162026-09-02 23:36:48-22.80742-43.25186194°11km/h1120m7.8m/s12.9°C78.2%893.4hPa0V00:00:0000:00:0000:00:00
PU1XMG-162026-09-02 23:36:43-22.80734-43.25182280°5km/h1083m4.1m/s13.3°C76.1%897.7hPa0V00:00:0000:00:0000:00:00
PU1XMG-162026-09-02 23:36:37-22.80727-43.25180266°9km/h1051m5.7m/s13.5°C74.3%900.9hPa0V00:00:0000:00:0000:00:00
PU1XMG-162026-09-02 23:36:31-22.80729-43.2517688°5km/h1018m7.1m/s13.8°C73.1%904.5hPa0V00:00:0000:00:0000:00:00
PU1XMG-162026-09-02 23:36:26-22.80733-43.25180349°9km/h986m5.5m/s14.1°C71.6%907.9hPa0V00:00:0000:00:0000:00:00
PU1XMG-162026-09-02 23:36:21-22.80737-43.25171351°4km/h957m5.4m/s14.3°C70.6%911.1hPa0V00:00:0000:00:0000:00:00
PU1XMG-162026-09-02 23:36:15-22.80740-43.25160207°7km/h927m4.6m/s14.6°C68.5%914.4hPa0V00:00:0000:00:0000:00:00
PU1XMG-162026-09-02 23:36:10-22.80737-43.25149280°18km/h899m6.6m/s14.7°C69.0%917.2hPa0V00:00:0000:00:0000:00:00
PU1XMG-162026-09-02 23:36:05-22.80753-43.25130325°24km/h865m8.5m/s15.0°C67.8%920.8hPa0V00:00:0000:00:0000:00:00
PU1XMG-162026-09-02 23:35:59-22.80765-43.25113292°13km/h830m8.6m/s15.2°C0%924.5hPa0V00:00:0000:00:0000:00:00
PU1XMG-162026-09-02 23:35:53-22.80778-43.25099284°11km/h795m7.8m/s15.4°C0%928.5hPa0V00:00:0000:00:0000:00:00
PU1XMG-162026-09-02 23:35:48-22.80787-43.25086345°2km/h766m5.9m/s15.5°C0%931.5hPa0V00:00:0000:00:0000:00:00
PU1XMG-162026-09-02 23:35:42-22.80777-43.25081241°2km/h736m6.4m/s15.5°C0%0hPa0V00:00:0000:00:0000:00:00
PU1XMG-162026-09-02 23:35:37-22.80777-43.25080180°9km/h708m5.7m/s15.5°C0%0hPa0V00:00:0000:00:0000:00:00
PU1XMG-162026-09-02 23:35:31-22.80776-43.25084276°5km/h672m6.3m/s15.6°C0%0hPa0V00:00:0000:00:0000:00:00
PU1XMG-162026-09-02 23:35:27-22.80768-43.25082127°5km/h646m5.6m/s15.9°C0%0hPa0V00:00:0000:00:0000:00:00
PU1XMG-162026-09-02 23:35:21-22.80763-43.25090138°15km/h615m6.7m/s16.1°C0%0hPa0V00:00:0000:00:0000:00:00
PU1XMG-162026-09-02 23:35:15-22.80753-43.25091292°7km/h579m5.2m/s16.3°C0%0hPa0V00:00:0000:00:0000:00:00
PU1XMG-162026-09-02 23:35:10-22.80757-43.25093142°4km/h554m4.0m/s16.6°C0%0hPa0V00:00:0000:00:0000:00:00
PU1XMG-162026-09-02 23:35:05-22.80759-43.25084316°15km/h529m6.0m/s0°C0%0hPa0V00:00:0000:00:0000:00:00
PU1XMG-162026-09-02 23:35:00-22.80761-43.25072195°5km/h501m6.7m/s0°C0%0hPa0V00:00:0000:00:0000:00:00
PU1XMG-162026-09-02 23:34:54-22.80759-43.250690km/h455m7.0m/s0°C0%0hPa0V00:00:0000:00:0000:00:00
PU1XMG-162026-09-02 23:34:49-22.80760-43.2507274°5km/h439m9.2m/s0°C0%0hPa0V00:00:0000:00:0000:00:00
PU1XMG-162026-09-02 23:34:43-22.80764-43.25073146°5km/h395m6.8m/s0°C0%0hPa0V00:00:0000:00:0000:00:00
PU1XMG-162026-09-02 23:34:38-22.80761-43.25079276°7km/h364m5.9m/s0°C0%0hPa0V00:00:0000:00:0000:00:00
PU1XMG-162026-09-02 23:34:33-22.80766-43.2506245°2km/h328m4.4m/s0°C0%0hPa0V00:00:0000:00:0000:00:00
PU1XMG-162026-09-02 23:34:27-22.80777-43.25061329°18km/h299m4.0m/s0°C0%0hPa0V00:00:0000:00:0000:00:00
PU1XMG-162026-09-02 23:34:21-22.80789-43.2506058°4km/h265m5.2m/s0°C0%0hPa0V00:00:0000:00:0000:00:00


GPX KML Map

© wettersonde.net (DO2JMG) - 2026  -  -